Observation data for Lake Alan Henry on 09/12/2017      Previous  Date  Next       Current Mesonet Observations  Soil Data  Daily Summary Page  Observations in Plain Language
KAHS 120500Z 12004KT 22/08 A3009 RMK A01 T02170078  RH  041%=      5-min Rain = 0
KAHS 120501Z 12003KT 22/08 A3009 RMK A01 T02170078  RH  041%=      5-min Rain = 0
KAHS 120502Z 12003KT 22/08 A3009 RMK A01 T02160078  RH  041%=      5-min Rain = 0
KAHS 120503Z 12003KT 22/08 A3009 RMK A01 T02160078  RH  041%=      5-min Rain = 0
KAHS 120504Z 13003KT 22/08 A3009 RMK A01 T02160078  RH  041%=      5-min Rain = 0
KAHS 120505Z 13003KT 22/08 A3009 RMK A01 T02150078  RH  041%=      5-min Rain = 0
KAHS 120506Z 13003KT 22/08 A3009 RMK A01 T02150078  RH  041%=      5-min Rain = 0
KAHS 120507Z 13003KT 22/08 A3009 RMK A01 T02150078  RH  041%=      5-min Rain = 0
KAHS 120508Z 13003KT 22/08 A3009 RMK A01 T02150078  RH  041%=      5-min Rain = 0
KAHS 120509Z 13003KT 22/08 A3009 RMK A01 T02150078  RH  041%=      5-min Rain = 0
KAHS 120510Z 13003KT 21/08 A3009 RMK A01 T02140078  RH  042%=      5-min Rain = 0
KAHS 120511Z 13003KT 21/08 A3009 RMK A01 T02140079  RH  042%=      5-min Rain = 0
KAHS 120512Z 12003KT 21/08 A3009 RMK A01 T02140079  RH  042%=      5-min Rain = 0
KAHS 120513Z 12003KT 22/08 A3009 RMK A01 T02150079  RH  042%=      5-min Rain = 0
KAHS 120514Z 12003KT 22/08 A3009 RMK A01 T02150079  RH  041%=      5-min Rain = 0
KAHS 120515Z 12003KT 22/08 A3009 RMK A01 T02150078  RH  041%=      5-min Rain = 0
KAHS 120516Z 11003KT 22/08 A3009 RMK A01 T02150078  RH  041%=      5-min Rain = 0
KAHS 120517Z 11003KT 22/08 A3009 RMK A01 T02150078  RH  041%=      5-min Rain = 0
KAHS 120518Z 10003KT 22/08 A3009 RMK A01 T02150078  RH  041%=      5-min Rain = 0
KAHS 120519Z 10003KT 21/08 A3009 RMK A01 T02140078  RH  041%=      5-min Rain = 0
KAHS 120520Z 10004KT 21/08 A3009 RMK A01 T02140078  RH  041%=      5-min Rain = 0
KAHS 120521Z 10004KT 21/08 A3009 RMK A01 T02140078  RH  042%=      5-min Rain = 0
KAHS 120522Z 10004KT 21/08 A3009 RMK A01 T02140078  RH  042%=      5-min Rain = 0
KAHS 120523Z 10004KT 21/08 A3009 RMK A01 T02130078  RH  042%=      5-min Rain = 0
KAHS 120524Z 11004KT 21/08 A3009 RMK A01 T02130078  RH  042%=      5-min Rain = 0
KAHS 120525Z 11004KT 21/08 A3009 RMK A01 T02130078  RH  042%=      5-min Rain = 0
KAHS 120526Z 12003KT 21/08 A3009 RMK A01 T02140078  RH  042%=      5-min Rain = 0
KAHS 120527Z 12003KT 21/08 A3009 RMK A01 T02140078  RH  042%=      5-min Rain = 0
KAHS 120528Z 11003KT 21/08 A3009 RMK A01 T02130078  RH  042%=      5-min Rain = 0
KAHS 120529Z 12002KT 21/08 A3009 RMK A01 T02130078  RH  042%=      5-min Rain = 0
KAHS 120530Z 13002KT 21/08 A3009 RMK A01 T02120078  RH  042%=      5-min Rain = 0
KAHS 120531Z 13002KT 21/08 A3009 RMK A01 T02110078  RH  042%=      5-min Rain = 0
KAHS 120532Z 14001KT 21/08 A3009 RMK A01 T02100078  RH  043%=      5-min Rain = 0
KAHS 120533Z 13001KT 21/08 A3009 RMK A01 T02090078  RH  043%=      5-min Rain = 0
KAHS 120534Z 13001KT 21/08 A3009 RMK A01 T02090078  RH  043%=      5-min Rain = 0
KAHS 120535Z 14001KT 21/08 A3009 RMK A01 T02090078  RH  043%=      5-min Rain = 0
KAHS 120536Z 14001KT 21/08 A3009 RMK A01 T02080078  RH  043%=      5-min Rain = 0
KAHS 120537Z 12002KT 21/08 A3009 RMK A01 T02080078  RH  043%=      5-min Rain = 0
KAHS 120538Z 12002KT 21/08 A3009 RMK A01 T02080078  RH  043%=      5-min Rain = 0
KAHS 120539Z 12003KT 21/08 A3008 RMK A01 T02080078  RH  043%=      5-min Rain = 0
KAHS 120540Z 12003KT 21/08 A3008 RMK A01 T02100078  RH  043%=      5-min Rain = 0
KAHS 120541Z 12003KT 21/08 A3008 RMK A01 T02110078  RH  042%=      5-min Rain = 0
KAHS 120542Z 12003KT 21/08 A3008 RMK A01 T02120078  RH  042%=      5-min Rain = 0
KAHS 120543Z 12003KT 21/08 A3008 RMK A01 T02130078  RH  042%=      5-min Rain = 0
KAHS 120544Z 12003KT 21/08 A3008 RMK A01 T02130078  RH  042%=      5-min Rain = 0
KAHS 120545Z 12003KT 21/08 A3008 RMK A01 T02120078  RH  042%=      5-min Rain = 0
KAHS 120546Z 12002KT 21/08 A3008 RMK A01 T02120078  RH  042%=      5-min Rain = 0
KAHS 120547Z 12002KT 21/08 A3008 RMK A01 T02110078  RH  042%=      5-min Rain = 0
KAHS 120548Z 13002KT 21/08 A3008 RMK A01 T02110078  RH  042%=      5-min Rain = 0
KAHS 120549Z 14002KT 21/08 A3008 RMK A01 T02100078  RH  043%=      5-min Rain = 0
KAHS 120550Z 14002KT 21/08 A3008 RMK A01 T02090078  RH  043%=      5-min Rain = 0
KAHS 120551Z 14002KT 21/08 A3008 RMK A01 T02080078  RH  043%=      5-min Rain = 0
KAHS 120552Z 13002KT 21/08 A3008 RMK A01 T02070078  RH  043%=      5-min Rain = 0
KAHS 120553Z 12002KT 21/08 A3008 RMK A01 T02070078  RH  043%=      5-min Rain = 0
KAHS 120554Z 11003KT 21/08 A3008 RMK A01 T02070078  RH  043%=      5-min Rain = 0
KAHS 120555Z 11003KT 21/08 A3008 RMK A01 T02080078  RH  043%=      5-min Rain = 0
KAHS 120556Z 12003KT 21/08 A3008 RMK A01 T02090078  RH  043%=      5-min Rain = 0
KAHS 120557Z 12003KT 21/08 A3008 RMK A01 T02090078  RH  043%=      5-min Rain = 0
KAHS 120558Z 11003KT 21/08 A3008 RMK A01 T02090078  RH  043%=      5-min Rain = 0
KAHS 120559Z 11003KT 21/08 A3008 RMK A01 T02090078  RH  043%=      5-min Rain = 0
KAHS 120600Z 11004KT 21/08 A3008 RMK A01 T02080078  RH  043%=      5-min Rain = 0
KAHS 120601Z 11003KT 21/08 A3008 RMK A01 T02070078  RH  043%=      5-min Rain = 0
KAHS 120602Z 11003KT 21/08 A3008 RMK A01 T02050077  RH  044%=      5-min Rain = 0
KAHS 120603Z 12003KT 20/08 A3008 RMK A01 T02040077  RH  044%=      5-min Rain = 0
KAHS 120604Z 12003KT 20/08 A3008 RMK A01 T02010076  RH  045%=      5-min Rain = 0
KAHS 120605Z 12002KT 20/08 A3008 RMK A01 T01990076  RH  045%=      5-min Rain = 0
KAHS 120606Z 12003KT 20/08 A3008 RMK A01 T01980077  RH  045%=      5-min Rain = 0
KAHS 120607Z 11003KT 20/08 A3008 RMK A01 T01970077  RH  046%=      5-min Rain = 0
KAHS 120608Z 11002KT 20/08 A3008 RMK A01 T01970077  RH  046%=      5-min Rain = 0
KAHS 120609Z 12002KT 20/08 A3008 RMK A01 T01960077  RH  046%=      5-min Rain = 0
KAHS 120610Z 11002KT 20/08 A3008 RMK A01 T01950077  RH  046%=      5-min Rain = 0
KAHS 120611Z 11002KT 20/08 A3008 RMK A01 T01950078  RH  047%=      5-min Rain = 0
KAHS 120612Z 12002KT 20/08 A3008 RMK A01 T01950078  RH  047%=      5-min Rain = 0
KAHS 120613Z 11002KT 20/08 A3008 RMK A01 T01950078  RH  047%=      5-min Rain = 0
KAHS 120614Z 11003KT 20/08 A3008 RMK A01 T01960078  RH  046%=      5-min Rain = 0
KAHS 120615Z 12002KT 20/08 A3008 RMK A01 T01970078  RH  046%=      5-min Rain = 0
KAHS 120616Z 12002KT 20/08 A3008 RMK A01 T01970078  RH  046%=      5-min Rain = 0
KAHS 120617Z 12002KT 20/08 A3008 RMK A01 T01970078  RH  046%=      5-min Rain = 0
KAHS 120618Z 12002KT 20/08 A3008 RMK A01 T01970078  RH  046%=      5-min Rain = 0
KAHS 120619Z 11002KT 20/08 A3008 RMK A01 T01980078  RH  046%=      5-min Rain = 0
KAHS 120620Z 11002KT 20/08 A3008 RMK A01 T01980078  RH  046%=      5-min Rain = 0
KAHS 120621Z 11002KT 20/08 A3008 RMK A01 T01990078  RH  046%=      5-min Rain = 0
KAHS 120622Z 11002KT 20/08 A3008 RMK A01 T02000078  RH  045%=      5-min Rain = 0
KAHS 120623Z 11002KT 20/08 A3008 RMK A01 T02000078  RH  045%=      5-min Rain = 0
KAHS 120624Z 11002KT 20/08 A3008 RMK A01 T02000078  RH  045%=      5-min Rain = 0
KAHS 120625Z 12003KT 20/08 A3008 RMK A01 T02000078  RH  045%=      5-min Rain = 0
KAHS 120626Z 12002KT 20/08 A3008 RMK A01 T02010078  RH  045%=      5-min Rain = 0
KAHS 120627Z 11002KT 20/08 A3008 RMK A01 T02020078  RH  045%=      5-min Rain = 0
KAHS 120628Z 11002KT 20/08 A3008 RMK A01 T02030078  RH  045%=      5-min Rain = 0
KAHS 120629Z 11002KT 20/08 A3008 RMK A01 T02030078  RH  044%=      5-min Rain = 0
KAHS 120630Z 11002KT 20/08 A3008 RMK A01 T02030078  RH  044%=      5-min Rain = 0
KAHS 120631Z 12002KT 20/08 A3007 RMK A01 T02030078  RH  044%=      5-min Rain = 0
KAHS 120632Z 11002KT 20/08 A3007 RMK A01 T02020078  RH  045%=      5-min Rain = 0
KAHS 120633Z 11002KT 20/08 A3007 RMK A01 T02020078  RH  045%=      5-min Rain = 0
KAHS 120634Z 11002KT 20/08 A3007 RMK A01 T02020078  RH  045%=      5-min Rain = 0
KAHS 120635Z 11002KT 20/08 A3007 RMK A01 T02010078  RH  045%=      5-min Rain = 0
KAHS 120636Z 12002KT 20/08 A3007 RMK A01 T02010078  RH  045%=      5-min Rain = 0
KAHS 120637Z 13002KT 20/08 A3007 RMK A01 T02000078  RH  045%=      5-min Rain = 0
KAHS 120638Z 13001KT 20/08 A3007 RMK A01 T02000078  RH  045%=      5-min Rain = 0
KAHS 120639Z 12002KT 20/08 A3007 RMK A01 T01990078  RH  046%=      5-min Rain = 0
KAHS 120640Z 12002KT 20/08 A3007 RMK A01 T01990078  RH  046%=      5-min Rain = 0
KAHS 120641Z 11002KT 20/08 A3007 RMK A01 T01990078  RH  046%=      5-min Rain = 0
KAHS 120642Z 10002KT 20/08 A3007 RMK A01 T01980078  RH  046%=      5-min Rain = 0
KAHS 120643Z 10001KT 19/08 A3007 RMK A01 T01930077  RH  047%=      5-min Rain = 0
KAHS 120644Z 10001KT 19/08 A3007 RMK A01 T01870078  RH  049%=      5-min Rain = 0
KAHS 120645Z 10001KT 18/08 A3007 RMK A01 T01820078  RH  051%=      5-min Rain = 0
KAHS 120646Z 10001KT 18/08 A3007 RMK A01 T01790079  RH  052%=      5-min Rain = 0
KAHS 120647Z 10001KT 18/08 A3007 RMK A01 T01800080  RH  052%=      5-min Rain = 0
KAHS 120648Z 10001KT 18/08 A3007 RMK A01 T01810080  RH  052%=      5-min Rain = 0
KAHS 120649Z 10001KT 18/08 A3007 RMK A01 T01810080  RH  052%=      5-min Rain = 0
KAHS 120650Z 10000KT 19/08 A3007 RMK A01 T01850080  RH  051%=      5-min Rain = 0
KAHS 120651Z 11000KT 19/08 A3007 RMK A01 T01880080  RH  049%=      5-min Rain = 0
KAHS 120652Z 12000KT 19/08 A3007 RMK A01 T01890080  RH  049%=      5-min Rain = 0
KAHS 120653Z 12000KT 19/08 A3007 RMK A01 T01900080  RH  049%=      5-min Rain = 0
KAHS 120654Z 00000KT 19/08 A3007 RMK A01 T01880080  RH  049%=      5-min Rain = 0
KAHS 120655Z 00000KT 19/08 A3007 RMK A01 T01880080  RH  049%=      5-min Rain = 0
KAHS 120656Z 00000KT 19/08 A3007 RMK A01 T01870080  RH  050%=      5-min Rain = 0
KAHS 120657Z 00000KT 19/08 A3007 RMK A01 T01860080  RH  050%=      5-min Rain = 0
KAHS 120658Z 00000KT 19/08 A3007 RMK A01 T01880080  RH  049%=      5-min Rain = 0
KAHS 120659Z 00000KT 19/08 A3007 RMK A01 T01910080  RH  049%=      5-min Rain = 0
KAHS 120700Z 00000KT 19/08 A3007 RMK A01 T01910079  RH  048%=      5-min Rain = 0
KAHS 120701Z 11000KT 19/08 A3007 RMK A01 T01930079  RH  048%=      5-min Rain = 0
KAHS 120702Z 10001KT 20/08 A3007 RMK A01 T01950079  RH  047%=      5-min Rain = 0
KAHS 120703Z 10001KT 20/08 A3007 RMK A01 T01970079  RH  047%=      5-min Rain = 0
KAHS 120704Z 10001KT 20/08 A3007 RMK A01 T01980079  RH  046%=      5-min Rain = 0
KAHS 120705Z 10001KT 20/08 A3007 RMK A01 T01980079  RH  046%=      5-min Rain = 0
KAHS 120706Z 10001KT 20/08 A3007 RMK A01 T01990079  RH  046%=      5-min Rain = 0
KAHS 120707Z 10002KT 20/08 A3007 RMK A01 T01980079  RH  046%=      5-min Rain = 0
KAHS 120708Z 10001KT 20/08 A3007 RMK A01 T01980078  RH  046%=      5-min Rain = 0
KAHS 120709Z 10001KT 20/08 A3006 RMK A01 T01970078  RH  046%=      5-min Rain = 0
KAHS 120710Z 10002KT 20/08 A3006 RMK A01 T01970078  RH  046%=      5-min Rain = 0
KAHS 120711Z 10002KT 20/08 A3006 RMK A01 T01960078  RH  046%=      5-min Rain = 0
KAHS 120712Z 10002KT 20/08 A3006 RMK A01 T01960078  RH  047%=      5-min Rain = 0
KAHS 120713Z 10002KT 20/08 A3006 RMK A01 T01950078  RH  047%=      5-min Rain = 0
KAHS 120714Z 10002KT 20/08 A3006 RMK A01 T01950078  RH  047%=      5-min Rain = 0
KAHS 120715Z 10002KT 19/08 A3006 RMK A01 T01940078  RH  047%=      5-min Rain = 0
KAHS 120716Z 10002KT 19/08 A3006 RMK A01 T01930078  RH  047%=      5-min Rain = 0
KAHS 120717Z 10002KT 19/08 A3006 RMK A01 T01920078  RH  048%=      5-min Rain = 0
KAHS 120718Z 10002KT 19/08 A3006 RMK A01 T01910078  RH  048%=      5-min Rain = 0
KAHS 120719Z 10002KT 19/08 A3006 RMK A01 T01910078  RH  048%=      5-min Rain = 0
KAHS 120720Z 09002KT 19/08 A3006 RMK A01 T01900078  RH  048%=      5-min Rain = 0
KAHS 120721Z 09002KT 19/08 A3006 RMK A01 T01910079  RH  048%=      5-min Rain = 0
KAHS 120722Z 09002KT 19/08 A3006 RMK A01 T01910079  RH  048%=      5-min Rain = 0
KAHS 120723Z 09002KT 19/08 A3006 RMK A01 T01920079  RH  048%=      5-min Rain = 0
KAHS 120724Z 09002KT 19/08 A3006 RMK A01 T01930079  RH  048%=      5-min Rain = 0
KAHS 120725Z 09002KT 19/08 A3006 RMK A01 T01930079  RH  047%=      5-min Rain = 0
KAHS 120726Z 09002KT 19/08 A3006 RMK A01 T01940079  RH  047%=      5-min Rain = 0
KAHS 120727Z 09002KT 19/08 A3006 RMK A01 T01940079  RH  047%=      5-min Rain = 0
KAHS 120728Z 09002KT 20/08 A3006 RMK A01 T01950079  RH  047%=      5-min Rain = 0
KAHS 120729Z 09002KT 20/08 A3006 RMK A01 T01950078  RH  047%=      5-min Rain = 0
KAHS 120730Z 09002KT 20/08 A3006 RMK A01 T01950078  RH  047%=      5-min Rain = 0
KAHS 120731Z 09002KT 19/08 A3006 RMK A01 T01940078  RH  047%=      5-min Rain = 0
KAHS 120732Z 09002KT 19/08 A3006 RMK A01 T01940078  RH  047%=      5-min Rain = 0
KAHS 120733Z 09002KT 19/08 A3006 RMK A01 T01930078  RH  047%=      5-min Rain = 0
KAHS 120734Z 09002KT 19/08 A3006 RMK A01 T01920078  RH  048%=      5-min Rain = 0
KAHS 120735Z 09002KT 19/08 A3006 RMK A01 T01920078  RH  048%=      5-min Rain = 0
KAHS 120736Z 09002KT 19/08 A3006 RMK A01 T01920078  RH  048%=      5-min Rain = 0
KAHS 120737Z 09002KT 19/08 A3006 RMK A01 T01920079  RH  048%=      5-min Rain = 0
KAHS 120738Z 09002KT 19/08 A3006 RMK A01 T01920078  RH  048%=      5-min Rain = 0
KAHS 120739Z 09002KT 19/08 A3006 RMK A01 T01920078  RH  048%=      5-min Rain = 0
KAHS 120740Z 09002KT 19/08 A3006 RMK A01 T01920079  RH  048%=      5-min Rain = 0
KAHS 120741Z 09002KT 19/08 A3006 RMK A01 T01920079  RH  048%=      5-min Rain = 0
KAHS 120742Z 09002KT 19/08 A3006 RMK A01 T01940079  RH  047%=      5-min Rain = 0
KAHS 120743Z 09002KT 19/08 A3006 RMK A01 T01940079  RH  047%=      5-min Rain = 0
KAHS 120744Z 09002KT 19/08 A3006 RMK A01 T01940078  RH  047%=      5-min Rain = 0
KAHS 120745Z 09002KT 19/08 A3006 RMK A01 T01940078  RH  047%=      5-min Rain = 0
KAHS 120746Z 09002KT 19/08 A3006 RMK A01 T01940078  RH  047%=      5-min Rain = 0
KAHS 120747Z 10001KT 19/08 A3006 RMK A01 T01940078  RH  047%=      5-min Rain = 0
KAHS 120748Z 10002KT 19/08 A3006 RMK A01 T01930078  RH  047%=      5-min Rain = 0
KAHS 120749Z 10002KT 19/08 A3006 RMK A01 T01910078  RH  048%=      5-min Rain = 0
KAHS 120750Z 11002KT 19/08 A3006 RMK A01 T01890078  RH  049%=      5-min Rain = 0
KAHS 120751Z 11002KT 19/08 A3006 RMK A01 T01880079  RH  049%=      5-min Rain = 0
KAHS 120752Z 10002KT 18/08 A3006 RMK A01 T01840078  RH  050%=      5-min Rain = 0
KAHS 120753Z 10002KT 18/08 A3006 RMK A01 T01790078  RH  052%=      5-min Rain = 0
KAHS 120754Z 10002KT 17/08 A3006 RMK A01 T01740078  RH  053%=      5-min Rain = 0
KAHS 120755Z 10002KT 17/08 A3006 RMK A01 T01710079  RH  055%=      5-min Rain = 0
KAHS 120756Z 10002KT 17/08 A3006 RMK A01 T01690079  RH  055%=      5-min Rain = 0
KAHS 120757Z 09002KT 17/08 A3006 RMK A01 T01690080  RH  056%=      5-min Rain = 0
KAHS 120758Z 09002KT 17/08 A3006 RMK A01 T01700080  RH  056%=      5-min Rain = 0
KAHS 120759Z 09002KT 17/08 A3006 RMK A01 T01710080  RH  055%=      5-min Rain = 0
KAHS 120800Z 09002KT 17/08 A3006 RMK A01 T01720081  RH  055%=      5-min Rain = 0
KAHS 120801Z 09002KT 17/08 A3006 RMK A01 T01720080  RH  055%=      5-min Rain = 0
KAHS 120802Z 09002KT 17/08 A3005 RMK A01 T01710080  RH  055%=      5-min Rain = 0
KAHS 120803Z 09002KT 17/08 A3005 RMK A01 T01710080  RH  055%=      5-min Rain = 0
KAHS 120804Z 10002KT 17/08 A3005 RMK A01 T01720081  RH  055%=      5-min Rain = 0
KAHS 120805Z 10002KT 17/08 A3005 RMK A01 T01730080  RH  054%=      5-min Rain = 0
KAHS 120806Z 11002KT 18/08 A3005 RMK A01 T01750080  RH  054%=      5-min Rain = 0
KAHS 120807Z 11002KT 18/08 A3005 RMK A01 T01760080  RH  053%=      5-min Rain = 0
KAHS 120808Z 11001KT 18/08 A3005 RMK A01 T01760080  RH  053%=      5-min Rain = 0
KAHS 120809Z 11001KT 18/08 A3005 RMK A01 T01750080  RH  054%=      5-min Rain = 0
KAHS 120810Z 12001KT 17/08 A3005 RMK A01 T01720080  RH  055%=      5-min Rain = 0
KAHS 120811Z 12001KT 17/08 A3005 RMK A01 T01710080  RH  055%=      5-min Rain = 0
KAHS 120812Z 12001KT 17/08 A3005 RMK A01 T01720080  RH  055%=      5-min Rain = 0
KAHS 120813Z 12001KT 17/08 A3005 RMK A01 T01740080  RH  054%=      5-min Rain = 0
KAHS 120814Z 12001KT 18/08 A3005 RMK A01 T01760080  RH  053%=      5-min Rain = 0
KAHS 120815Z 12001KT 18/08 A3005 RMK A01 T01760080  RH  053%=      5-min Rain = 0
KAHS 120816Z 12001KT 18/08 A3005 RMK A01 T01780080  RH  053%=      5-min Rain = 0
KAHS 120817Z 11001KT 18/08 A3005 RMK A01 T01790080  RH  052%=      5-min Rain = 0
KAHS 120818Z 11001KT 18/08 A3005 RMK A01 T01800080  RH  052%=      5-min Rain = 0
KAHS 120819Z 11001KT 18/08 A3005 RMK A01 T01810079  RH  051%=      5-min Rain = 0
KAHS 120820Z 11001KT 18/08 A3005 RMK A01 T01810079  RH  051%=      5-min Rain = 0
KAHS 120821Z 10001KT 18/08 A3005 RMK A01 T01790080  RH  052%=      5-min Rain = 0
KAHS 120822Z 10001KT 18/08 A3005 RMK A01 T01750079  RH  053%=      5-min Rain = 0
KAHS 120823Z 09001KT 17/08 A3005 RMK A01 T01730080  RH  054%=      5-min Rain = 0
KAHS 120824Z 09001KT 17/08 A3005 RMK A01 T01730080  RH  054%=      5-min Rain = 0
KAHS 120825Z 09000KT 17/08 A3005 RMK A01 T01740080  RH  054%=      5-min Rain = 0
KAHS 120826Z 09000KT 18/08 A3005 RMK A01 T01750080  RH  054%=      5-min Rain = 0
KAHS 120827Z 00000KT 17/08 A3005 RMK A01 T01720080  RH  055%=      5-min Rain = 0
KAHS 120828Z 00000KT 17/08 A3005 RMK A01 T01690080  RH  056%=      5-min Rain = 0
KAHS 120829Z 00000KT 17/08 A3005 RMK A01 T01700080  RH  056%=      5-min Rain = 0
KAHS 120830Z 00000KT 17/08 A3005 RMK A01 T01710081  RH  055%=      5-min Rain = 0
KAHS 120831Z 00000KT 17/08 A3005 RMK A01 T01720081  RH  055%=      5-min Rain = 0
KAHS 120832Z 00000KT 17/08 A3005 RMK A01 T01740081  RH  054%=      5-min Rain = 0
KAHS 120833Z 00000KT 18/08 A3005 RMK A01 T01770081  RH  053%=      5-min Rain = 0
KAHS 120834Z 00000KT 18/08 A3005 RMK A01 T01790081  RH  053%=      5-min Rain = 0
KAHS 120835Z 00000KT 18/08 A3005 RMK A01 T01820081  RH  052%=      5-min Rain = 0
KAHS 120836Z 00000KT 18/08 A3005 RMK A01 T01830080  RH  051%=      5-min Rain = 0
KAHS 120837Z 00000KT 18/08 A3005 RMK A01 T01830080  RH  051%=      5-min Rain = 0
KAHS 120838Z 00000KT 18/08 A3005 RMK A01 T01830080  RH  051%=      5-min Rain = 0
KAHS 120839Z 00000KT 18/08 A3005 RMK A01 T01810080  RH  051%=      5-min Rain = 0
KAHS 120840Z 00000KT 18/08 A3005 RMK A01 T01810080  RH  052%=      5-min Rain = 0
KAHS 120841Z 00000KT 18/08 A3005 RMK A01 T01830081  RH  051%=      5-min Rain = 0
KAHS 120842Z 00000KT 18/08 A3005 RMK A01 T01840081  RH  051%=      5-min Rain = 0
KAHS 120843Z 00000KT 18/08 A3005 RMK A01 T01840080  RH  051%=      5-min Rain = 0
KAHS 120844Z 00000KT 18/08 A3005 RMK A01 T01840080  RH  051%=      5-min Rain = 0
KAHS 120845Z 00000KT 18/08 A3005 RMK A01 T01830080  RH  051%=      5-min Rain = 0
KAHS 120846Z 00000KT 18/08 A3005 RMK A01 T01830080  RH  051%=      5-min Rain = 0
KAHS 120847Z 00000KT 18/08 A3005 RMK A01 T01820080  RH  051%=      5-min Rain = 0
KAHS 120848Z 00000KT 18/08 A3005 RMK A01 T01820079  RH  051%=      5-min Rain = 0
KAHS 120849Z 00000KT 18/08 A3005 RMK A01 T01800079  RH  052%=      5-min Rain = 0
KAHS 120850Z 00000KT 18/08 A3005 RMK A01 T01780079  RH  052%=      5-min Rain = 0
KAHS 120851Z 00000KT 18/08 A3005 RMK A01 T01770079  RH  053%=      5-min Rain = 0
KAHS 120852Z 00000KT 18/08 A3005 RMK A01 T01760080  RH  053%=      5-min Rain = 0
KAHS 120853Z 00000KT 18/08 A3004 RMK A01 T01750080  RH  053%=      5-min Rain = 0
KAHS 120854Z 00000KT 17/08 A3005 RMK A01 T01740080  RH  054%=      5-min Rain = 0
KAHS 120855Z 00000KT 17/08 A3005 RMK A01 T01730080  RH  054%=      5-min Rain = 0
KAHS 120856Z 11000KT 17/08 A3005 RMK A01 T01730081  RH  054%=      5-min Rain = 0
KAHS 120857Z 11001KT 17/08 A3004 RMK A01 T01740081  RH  054%=      5-min Rain = 0
KAHS 120858Z 11001KT 18/08 A3005 RMK A01 T01750081  RH  054%=      5-min Rain = 0
KAHS 120859Z 12000KT 18/08 A3005 RMK A01 T01750081  RH  054%=      5-min Rain = 0
KAHS 120900Z 00000KT 17/08 A3005 RMK A01 T01730081  RH  054%=      5-min Rain = 0
KAHS 120901Z 00000KT 17/08 A3005 RMK A01 T01710080  RH  055%=      5-min Rain = 0
KAHS 120902Z 00000KT 17/08 A3005 RMK A01 T01680080  RH  056%=      5-min Rain = 0
KAHS 120903Z 00000KT 17/08 A3005 RMK A01 T01660080  RH  057%=      5-min Rain = 0
KAHS 120904Z 00000KT 16/08 A3005 RMK A01 T01630080  RH  058%=      5-min Rain = 0
KAHS 120905Z 00000KT 16/08 A3004 RMK A01 T01610080  RH  059%=      5-min Rain = 0
KAHS 120906Z 00000KT 16/08 A3004 RMK A01 T01600081  RH  059%=      5-min Rain = 0
KAHS 120907Z 00000KT 16/08 A3004 RMK A01 T01610082  RH  059%=      5-min Rain = 0
KAHS 120908Z 00000KT 16/08 A3004 RMK A01 T01620082  RH  059%=      5-min Rain = 0
KAHS 120909Z 00000KT 16/08 A3004 RMK A01 T01630082  RH  059%=      5-min Rain = 0
KAHS 120910Z 00000KT 16/08 A3004 RMK A01 T01620082  RH  059%=      5-min Rain = 0
KAHS 120911Z 00000KT 16/08 A3004 RMK A01 T01620082  RH  059%=      5-min Rain = 0
KAHS 120912Z 00000KT 16/08 A3004 RMK A01 T01630082  RH  059%=      5-min Rain = 0
KAHS 120913Z 00000KT 17/08 A3004 RMK A01 T01650082  RH  058%=      5-min Rain = 0
KAHS 120914Z 00000KT 17/08 A3004 RMK A01 T01650082  RH  058%=      5-min Rain = 0
KAHS 120915Z 00000KT 17/08 A3004 RMK A01 T01680082  RH  057%=      5-min Rain = 0
KAHS 120916Z 23001KT 17/08 A3004 RMK A01 T01700082  RH  056%=      5-min Rain = 0
KAHS 120917Z 23001KT 17/08 A3004 RMK A01 T01710082  RH  056%=      5-min Rain = 0
KAHS 120918Z 23001KT 17/08 A3004 RMK A01 T01720082  RH  055%=      5-min Rain = 0
KAHS 120919Z 23001KT 17/08 A3004 RMK A01 T01740082  RH  055%=      5-min Rain = 0
KAHS 120920Z 23001KT 18/08 A3004 RMK A01 T01750081  RH  054%=      5-min Rain = 0
KAHS 120921Z 23001KT 18/08 A3004 RMK A01 T01760081  RH  054%=      5-min Rain = 0
KAHS 120922Z 23000KT 18/08 A3004 RMK A01 T01760081  RH  054%=      5-min Rain = 0
KAHS 120923Z 24001KT 18/08 A3004 RMK A01 T01750081  RH  054%=      5-min Rain = 0
KAHS 120924Z 26001KT 17/08 A3004 RMK A01 T01730081  RH  055%=      5-min Rain = 0
KAHS 120925Z 26001KT 17/08 A3004 RMK A01 T01720081  RH  055%=      5-min Rain = 0
KAHS 120926Z 26001KT 17/08 A3004 RMK A01 T01720081  RH  055%=      5-min Rain = 0
KAHS 120927Z 26001KT 17/08 A3004 RMK A01 T01730082  RH  055%=      5-min Rain = 0
KAHS 120928Z 26001KT 17/08 A3004 RMK A01 T01740082  RH  055%=      5-min Rain = 0
KAHS 120929Z 26001KT 18/08 A3004 RMK A01 T01750082  RH  054%=      5-min Rain = 0
KAHS 120930Z 26001KT 18/08 A3004 RMK A01 T01750082  RH  054%=      5-min Rain = 0
KAHS 120931Z 26001KT 17/08 A3004 RMK A01 T01740081  RH  054%=      5-min Rain = 0
KAHS 120932Z 26001KT 17/08 A3004 RMK A01 T01710080  RH  055%=      5-min Rain = 0
KAHS 120933Z 26001KT 17/08 A3004 RMK A01 T01680079  RH  055%=      5-min Rain = 0
KAHS 120934Z 26001KT 17/08 A3004 RMK A01 T01660079  RH  056%=      5-min Rain = 0
KAHS 120935Z 26001KT 16/08 A3004 RMK A01 T01630079  RH  057%=      5-min Rain = 0
KAHS 120936Z 26001KT 16/08 A3004 RMK A01 T01590079  RH  059%=      5-min Rain = 0
KAHS 120937Z 26001KT 16/08 A3004 RMK A01 T01580081  RH  060%=      5-min Rain = 0
KAHS 120938Z 26001KT 16/08 A3004 RMK A01 T01580082  RH  060%=      5-min Rain = 0
KAHS 120939Z 26001KT 16/08 A3004 RMK A01 T01600082  RH  060%=      5-min Rain = 0
KAHS 120940Z 26000KT 16/08 A3004 RMK A01 T01620083  RH  060%=      5-min Rain = 0
KAHS 120941Z 00000KT 16/08 A3004 RMK A01 T01640084  RH  059%=      5-min Rain = 0
KAHS 120942Z 00000KT 17/09 A3004 RMK A01 T01670085  RH  059%=      5-min Rain = 0
KAHS 120943Z 00000KT 17/09 A3004 RMK A01 T01690087  RH  058%=      5-min Rain = 0
KAHS 120944Z 00000KT 17/09 A3004 RMK A01 T01710088  RH  058%=      5-min Rain = 0
KAHS 120945Z 00000KT 17/09 A3004 RMK A01 T01740088  RH  057%=      5-min Rain = 0
KAHS 120946Z 00000KT 17/09 A3004 RMK A01 T01730086  RH  056%=      5-min Rain = 0
KAHS 120947Z 00000KT 17/09 A3004 RMK A01 T01730086  RH  057%=      5-min Rain = 0
KAHS 120948Z 00000KT 17/09 A3004 RMK A01 T01720085  RH  057%=      5-min Rain = 0
KAHS 120949Z 00000KT 17/08 A3004 RMK A01 T01720084  RH  056%=      5-min Rain = 0
KAHS 120950Z 00000KT 17/08 A3004 RMK A01 T01720083  RH  056%=      5-min Rain = 0
KAHS 120951Z 00000KT 17/08 A3004 RMK A01 T01700080  RH  055%=      5-min Rain = 0
KAHS 120952Z 00000KT 17/08 A3004 RMK A01 T01660079  RH  056%=      5-min Rain = 0
KAHS 120953Z 00000KT 16/08 A3004 RMK A01 T01640079  RH  057%=      5-min Rain = 0
KAHS 120954Z 00000KT 16/08 A3004 RMK A01 T01620079  RH  058%=      5-min Rain = 0
KAHS 120955Z 00000KT 16/08 A3004 RMK A01 T01590079  RH  059%=      5-min Rain = 0
KAHS 120956Z 00000KT 16/08 A3004 RMK A01 T01580079  RH  059%=      5-min Rain = 0
KAHS 120957Z 00000KT 16/08 A3004 RMK A01 T01560078  RH  060%=      5-min Rain = 0
KAHS 120958Z 00000KT 16/08 A3004 RMK A01 T01560080  RH  060%=      5-min Rain = 0
KAHS 120959Z 00000KT 16/08 A3004 RMK A01 T01560080  RH  060%=      5-min Rain = 0
KAHS 121000Z 00000KT 16/08 A3004 RMK A01 T01580081  RH  060%=      5-min Rain = 0
KAHS 121001Z 29000KT 16/08 A3004 RMK A01 T01600081  RH  059%=      5-min Rain = 0
KAHS 121002Z 29000KT 16/08 A3004 RMK A01 T01620081  RH  059%=      5-min Rain = 0
KAHS 121003Z 29001KT 16/08 A3004 RMK A01 T01640081  RH  058%=      5-min Rain = 0
KAHS 121004Z 31001KT 17/08 A3004 RMK A01 T01650081  RH  057%=      5-min Rain = 0
KAHS 121005Z 31001KT 17/08 A3004 RMK A01 T01660080  RH  057%=      5-min Rain = 0
KAHS 121006Z 32001KT 17/08 A3004 RMK A01 T01650080  RH  057%=      5-min Rain = 0
KAHS 121007Z 32001KT 16/08 A3004 RMK A01 T01640080  RH  057%=      5-min Rain = 0
KAHS 121008Z 33001KT 16/08 A3004 RMK A01 T01640080  RH  058%=      5-min Rain = 0
KAHS 121009Z 33001KT 16/08 A3004 RMK A01 T01640080  RH  058%=      5-min Rain = 0
KAHS 121010Z 33001KT 16/08 A3004 RMK A01 T01640080  RH  058%=      5-min Rain = 0
KAHS 121011Z 32001KT 16/08 A3004 RMK A01 T01630080  RH  058%=      5-min Rain = 0
KAHS 121012Z 32001KT 16/08 A3004 RMK A01 T01620080  RH  058%=      5-min Rain = 0
KAHS 121013Z 32002KT 16/08 A3004 RMK A01 T01610080  RH  059%=      5-min Rain = 0
KAHS 121014Z 32002KT 16/08 A3004 RMK A01 T01580079  RH  059%=      5-min Rain = 0
KAHS 121015Z 32001KT 16/08 A3004 RMK A01 T01560080  RH  060%=      5-min Rain = 0
KAHS 121016Z 32001KT 16/08 A3004 RMK A01 T01550080  RH  061%=      5-min Rain = 0
KAHS 121017Z 32001KT 15/08 A3004 RMK A01 T01540080  RH  061%=      5-min Rain = 0
KAHS 121018Z 32001KT 15/08 A3004 RMK A01 T01540080  RH  061%=      5-min Rain = 0
KAHS 121019Z 32001KT 15/08 A3004 RMK A01 T01530080  RH  062%=      5-min Rain = 0
KAHS 121020Z 33001KT 15/08 A3004 RMK A01 T01530080  RH  062%=      5-min Rain = 0
KAHS 121021Z 34001KT 15/08 A3004 RMK A01 T01520080  RH  062%=      5-min Rain = 0
KAHS 121022Z 34001KT 15/08 A3004 RMK A01 T01510079  RH  062%=      5-min Rain = 0
KAHS 121023Z 34001KT 15/08 A3004 RMK A01 T01510079  RH  062%=      5-min Rain = 0
KAHS 121024Z 34002KT 15/08 A3004 RMK A01 T01520079  RH  062%=      5-min Rain = 0
KAHS 121025Z 34002KT 15/08 A3004 RMK A01 T01530079  RH  061%=      5-min Rain = 0
KAHS 121026Z 34002KT 15/08 A3004 RMK A01 T01530079  RH  061%=      5-min Rain = 0
KAHS 121027Z 34002KT 15/08 A3004 RMK A01 T01530079  RH  061%=      5-min Rain = 0
KAHS 121028Z 34002KT 15/08 A3004 RMK A01 T01530079  RH  061%=      5-min Rain = 0
KAHS 121029Z 34002KT 15/08 A3004 RMK A01 T01530079  RH  061%=      5-min Rain = 0
KAHS 121030Z 34002KT 15/08 A3004 RMK A01 T01530079  RH  061%=      5-min Rain = 0
KAHS 121031Z 34002KT 15/08 A3004 RMK A01 T01540080  RH  061%=      5-min Rain = 0
KAHS 121032Z 34002KT 16/08 A3004 RMK A01 T01550080  RH  061%=      5-min Rain = 0
KAHS 121033Z 34002KT 16/08 A3004 RMK A01 T01570080  RH  060%=      5-min Rain = 0
KAHS 121034Z 34002KT 16/08 A3004 RMK A01 T01570080  RH  060%=      5-min Rain = 0
KAHS 121035Z 34002KT 16/08 A3004 RMK A01 T01570080  RH  060%=      5-min Rain = 0
KAHS 121036Z 34002KT 16/08 A3004 RMK A01 T01570080  RH  060%=      5-min Rain = 0
KAHS 121037Z 34002KT 16/08 A3004 RMK A01 T01560079  RH  060%=      5-min Rain = 0
KAHS 121038Z 34002KT 16/08 A3004 RMK A01 T01560079  RH  060%=      5-min Rain = 0
KAHS 121039Z 34002KT 16/08 A3004 RMK A01 T01550079  RH  061%=      5-min Rain = 0
KAHS 121040Z 35002KT 16/08 A3004 RMK A01 T01550079  RH  061%=      5-min Rain = 0
KAHS 121041Z 35002KT 16/08 A3004 RMK A01 T01560079  RH  060%=      5-min Rain = 0
KAHS 121042Z 35002KT 16/08 A3004 RMK A01 T01560079  RH  060%=      5-min Rain = 0
KAHS 121043Z 35002KT 16/08 A3004 RMK A01 T01560079  RH  060%=      5-min Rain = 0
KAHS 121044Z 35002KT 16/08 A3004 RMK A01 T01560079  RH  060%=      5-min Rain = 0
KAHS 121045Z 35002KT 16/08 A3004 RMK A01 T01560079  RH  060%=      5-min Rain = 0
KAHS 121046Z 35002KT 16/08 A3004 RMK A01 T01550079  RH  060%=      5-min Rain = 0
KAHS 121047Z 35003KT 15/08 A3004 RMK A01 T01540079  RH  061%=      5-min Rain = 0
KAHS 121048Z 34003KT 15/08 A3004 RMK A01 T01530079  RH  061%=      5-min Rain = 0
KAHS 121049Z 34003KT 15/08 A3004 RMK A01 T01510078  RH  062%=      5-min Rain = 0
KAHS 121050Z 33003KT 15/08 A3004 RMK A01 T01490078  RH  062%=      5-min Rain = 0
KAHS 121051Z 33003KT 15/08 A3004 RMK A01 T01480078  RH  063%=      5-min Rain = 0
KAHS 121052Z 32003KT 15/08 A3004 RMK A01 T01480078  RH  063%=      5-min Rain = 0
KAHS 121053Z 32002KT 15/08 A3004 RMK A01 T01470078  RH  063%=      5-min Rain = 0
KAHS 121054Z 32002KT 15/08 A3004 RMK A01 T01470079  RH  064%=      5-min Rain = 0
KAHS 121055Z 32002KT 15/08 A3004 RMK A01 T01470080  RH  064%=      5-min Rain = 0
KAHS 121056Z 32002KT 15/08 A3004 RMK A01 T01470080  RH  064%=      5-min Rain = 0
KAHS 121057Z 33003KT 15/08 A3004 RMK A01 T01480081  RH  064%=      5-min Rain = 0
KAHS 121058Z 33003KT 15/08 A3004 RMK A01 T01490081  RH  064%=      5-min Rain = 0
KAHS 121059Z 33003KT 15/08 A3004 RMK A01 T01510081  RH  063%=      5-min Rain = 0
KAHS 121100Z 33003KT 15/08 A3004 RMK A01 T01520081  RH  062%=      5-min Rain = 0
KAHS 121101Z 34003KT 15/08 A3004 RMK A01 T01530081  RH  062%=      5-min Rain = 0
KAHS 121102Z 34003KT 15/08 A3004 RMK A01 T01540081  RH  062%=      5-min Rain = 0
KAHS 121103Z 34003KT 15/08 A3004 RMK A01 T01530080  RH  062%=      5-min Rain = 0
KAHS 121104Z 34003KT 15/08 A3004 RMK A01 T01530079  RH  061%=      5-min Rain = 0
KAHS 121105Z 34003KT 15/08 A3004 RMK A01 T01520079  RH  062%=      5-min Rain = 0
KAHS 121106Z 34003KT 15/08 A3004 RMK A01 T01510079  RH  062%=      5-min Rain = 0
KAHS 121107Z 34003KT 15/08 A3004 RMK A01 T01510079  RH  062%=      5-min Rain = 0
KAHS 121108Z 34003KT 15/08 A3005 RMK A01 T01510079  RH  062%=      5-min Rain = 0
KAHS 121109Z 34003KT 15/08 A3005 RMK A01 T01500078  RH  062%=      5-min Rain = 0
KAHS 121110Z 34003KT 15/08 A3005 RMK A01 T01500078  RH  062%=      5-min Rain = 0
KAHS 121111Z 34003KT 15/08 A3005 RMK A01 T01490079  RH  063%=      5-min Rain = 0
KAHS 121112Z 34003KT 15/08 A3005 RMK A01 T01500080  RH  063%=      5-min Rain = 0
KAHS 121113Z 34003KT 15/08 A3005 RMK A01 T01510080  RH  063%=      5-min Rain = 0
KAHS 121114Z 34003KT 15/08 A3005 RMK A01 T01530081  RH  062%=      5-min Rain = 0
KAHS 121115Z 34003KT 15/08 A3005 RMK A01 T01540081  RH  062%=      5-min Rain = 0
KAHS 121116Z 33003KT 15/08 A3005 RMK A01 T01540081  RH  061%=      5-min Rain = 0
KAHS 121117Z 33003KT 16/08 A3005 RMK A01 T01550080  RH  061%=      5-min Rain = 0
KAHS 121118Z 33003KT 16/08 A3005 RMK A01 T01550081  RH  061%=      5-min Rain = 0
KAHS 121119Z 33003KT 16/08 A3005 RMK A01 T01550080  RH  061%=      5-min Rain = 0
KAHS 121120Z 32003KT 15/08 A3005 RMK A01 T01530077  RH  061%=      5-min Rain = 0
KAHS 121121Z 31002KT 15/08 A3005 RMK A01 T01470076  RH  062%=      5-min Rain = 0
KAHS 121122Z 31002KT 14/08 A3005 RMK A01 T01440076  RH  064%=      5-min Rain = 0
KAHS 121123Z 31002KT 14/08 A3005 RMK A01 T01430077  RH  064%=      5-min Rain = 0
KAHS 121124Z 31002KT 14/08 A3005 RMK A01 T01440078  RH  064%=      5-min Rain = 0
KAHS 121125Z 32003KT 14/08 A3005 RMK A01 T01440078  RH  065%=      5-min Rain = 0
KAHS 121126Z 32003KT 14/08 A3005 RMK A01 T01440079  RH  065%=      5-min Rain = 0
KAHS 121127Z 32003KT 14/08 A3005 RMK A01 T01440081  RH  065%=      5-min Rain = 0
KAHS 121128Z 32003KT 15/08 A3005 RMK A01 T01460081  RH  065%=      5-min Rain = 0
KAHS 121129Z 32003KT 15/08 A3005 RMK A01 T01480082  RH  065%=      5-min Rain = 0
KAHS 121130Z 32003KT 15/08 A3005 RMK A01 T01490082  RH  064%=      5-min Rain = 0
KAHS 121131Z 32003KT 15/08 A3005 RMK A01 T01500081  RH  064%=      5-min Rain = 0
KAHS 121132Z 32003KT 15/08 A3005 RMK A01 T01490081  RH  064%=      5-min Rain = 0
KAHS 121133Z 32003KT 15/08 A3005 RMK A01 T01490081  RH  064%=      5-min Rain = 0
KAHS 121134Z 31004KT 15/08 A3005 RMK A01 T01500081  RH  064%=      5-min Rain = 0
KAHS 121135Z 31004KT 15/08 A3005 RMK A01 T01510082  RH  063%=      5-min Rain = 0
KAHS 121136Z 31004KT 15/08 A3005 RMK A01 T01510081  RH  063%=      5-min Rain = 0
KAHS 121137Z 31004KT 15/08 A3005 RMK A01 T01510081  RH  063%=      5-min Rain = 0
KAHS 121138Z 31004KT 15/08 A3005 RMK A01 T01500081  RH  063%=      5-min Rain = 0
KAHS 121139Z 31004KT 15/08 A3005 RMK A01 T01500081  RH  063%=      5-min Rain = 0
KAHS 121140Z 32004KT 15/08 A3005 RMK A01 T01500081  RH  063%=      5-min Rain = 0
KAHS 121141Z 32003KT 15/08 A3005 RMK A01 T01500081  RH  063%=      5-min Rain = 0
KAHS 121142Z 32003KT 15/08 A3005 RMK A01 T01500080  RH  063%=      5-min Rain = 0
KAHS 121143Z 32002KT 15/08 A3005 RMK A01 T01490079  RH  063%=      5-min Rain = 0
KAHS 121144Z 32002KT 15/08 A3005 RMK A01 T01470076  RH  062%=      5-min Rain = 0
KAHS 121145Z 32002KT 15/08 A3005 RMK A01 T01450075  RH  063%=      5-min Rain = 0
KAHS 121146Z 32002KT 14/08 A3005 RMK A01 T01440075  RH  063%=      5-min Rain = 0
KAHS 121147Z 32002KT 14/08 A3005 RMK A01 T01430075  RH  064%=      5-min Rain = 0
KAHS 121148Z 32002KT 14/08 A3005 RMK A01 T01440078  RH  065%=      5-min Rain = 0
KAHS 121149Z 32002KT 14/08 A3005 RMK A01 T01440079  RH  065%=      5-min Rain = 0
KAHS 121150Z 32002KT 15/08 A3005 RMK A01 T01450080  RH  065%=      5-min Rain = 0
KAHS 121151Z 32003KT 15/08 A3005 RMK A01 T01460080  RH  065%=      5-min Rain = 0
KAHS 121152Z 33002KT 15/08 A3005 RMK A01 T01460080  RH  065%=      5-min Rain = 0
KAHS 121153Z 33002KT 15/08 A3005 RMK A01 T01470080  RH  064%=      5-min Rain = 0
KAHS 121154Z 33002KT 15/08 A3005 RMK A01 T01470079  RH  064%=      5-min Rain = 0
KAHS 121155Z 33002KT 15/08 A3005 RMK A01 T01480079  RH  063%=      5-min Rain = 0
KAHS 121156Z 34003KT 15/08 A3005 RMK A01 T01480079  RH  063%=      5-min Rain = 0
KAHS 121157Z 35003KT 15/08 A3005 RMK A01 T01490079  RH  063%=      5-min Rain = 0
KAHS 121158Z 35003KT 15/08 A3005 RMK A01 T01490079  RH  063%=      5-min Rain = 0
KAHS 121159Z 35003KT 15/08 A3005 RMK A01 T01490079  RH  063%=      5-min Rain = 0
KAHS 121200Z 34002KT 15/08 A3005 RMK A01 T01490078  RH  063%=      5-min Rain = 0
KAHS 121201Z 34002KT 15/08 A3005 RMK A01 T01480077  RH  063%=      5-min Rain = 0
KAHS 121202Z 34001KT 15/08 A3005 RMK A01 T01460078  RH  064%=      5-min Rain = 0
KAHS 121203Z 34002KT 15/08 A3005 RMK A01 T01450077  RH  064%=      5-min Rain = 0
KAHS 121204Z 34003KT 14/08 A3005 RMK A01 T01440077  RH  064%=      5-min Rain = 0
KAHS 121205Z 34002KT 14/08 A3005 RMK A01 T01440077  RH  064%=      5-min Rain = 0
KAHS 121206Z 34002KT 14/08 A3005 RMK A01 T01430077  RH  064%=      5-min Rain = 0
KAHS 121207Z 33002KT 14/08 A3005 RMK A01 T01430077  RH  064%=      5-min Rain = 0
KAHS 121208Z 33001KT 14/08 A3005 RMK A01 T01420077  RH  065%=      5-min Rain = 0
KAHS 121209Z 30000KT 14/08 A3006 RMK A01 T01420077  RH  065%=      5-min Rain = 0
KAHS 121210Z 27001KT 14/08 A3006 RMK A01 T01410077  RH  066%=      5-min Rain = 0
KAHS 121211Z 26001KT 14/08 A3006 RMK A01 T01390077  RH  066%=      5-min Rain = 0
KAHS 121212Z 26001KT 14/08 A3006 RMK A01 T01380078  RH  067%=      5-min Rain = 0
KAHS 121213Z 28001KT 14/08 A3005 RMK A01 T01380079  RH  068%=      5-min Rain = 0
KAHS 121214Z 28001KT 14/08 A3005 RMK A01 T01380079  RH  068%=      5-min Rain = 0
KAHS 121215Z 28001KT 14/08 A3005 RMK A01 T01370079  RH  068%=      5-min Rain = 0
KAHS 121216Z 28001KT 14/08 A3005 RMK A01 T01370079  RH  068%=      5-min Rain = 0
KAHS 121217Z 29001KT 14/08 A3005 RMK A01 T01370079  RH  068%=      5-min Rain = 0
KAHS 121218Z 29000KT 14/08 A3005 RMK A01 T01370080  RH  068%=      5-min Rain = 0
KAHS 121219Z 00000KT 14/08 A3005 RMK A01 T01370080  RH  068%=      5-min Rain = 0
KAHS 121220Z 00000KT 14/08 A3005 RMK A01 T01380080  RH  068%=      5-min Rain = 0
KAHS 121221Z 00000KT 14/08 A3005 RMK A01 T01380079  RH  067%=      5-min Rain = 0
KAHS 121222Z 00000KT 14/08 A3005 RMK A01 T01380078  RH  067%=      5-min Rain = 0
KAHS 121223Z 00000KT 14/08 A3005 RMK A01 T01380078  RH  067%=      5-min Rain = 0
KAHS 121224Z 07000KT 14/08 A3005 RMK A01 T01380079  RH  067%=      5-min Rain = 0
KAHS 121225Z 10001KT 14/08 A3005 RMK A01 T01390079  RH  067%=      5-min Rain = 0
KAHS 121226Z 11001KT 14/08 A3005 RMK A01 T01390079  RH  067%=      5-min Rain = 0
KAHS 121227Z 11001KT 14/08 A3005 RMK A01 T01390079  RH  067%=      5-min Rain = 0
KAHS 121228Z 11000KT 14/08 A3005 RMK A01 T01390079  RH  067%=      5-min Rain = 0
KAHS 121229Z 00000KT 14/08 A3005 RMK A01 T01400079  RH  067%=      5-min Rain = 0
KAHS 121230Z 00000KT 14/08 A3005 RMK A01 T01400078  RH  066%=      5-min Rain = 0
KAHS 121231Z 00000KT 14/08 A3005 RMK A01 T01390078  RH  067%=      5-min Rain = 0
KAHS 121232Z 00000KT 14/08 A3005 RMK A01 T01390078  RH  067%=      5-min Rain = 0
KAHS 121233Z 17000KT 14/08 A3005 RMK A01 T01380078  RH  067%=      5-min Rain = 0
KAHS 121234Z 17001KT 14/08 A3005 RMK A01 T01370078  RH  067%=      5-min Rain = 0
KAHS 121235Z 17001KT 14/08 A3005 RMK A01 T01360078  RH  068%=      5-min Rain = 0
KAHS 121236Z 17001KT 14/08 A3005 RMK A01 T01360079  RH  068%=      5-min Rain = 0
KAHS 121237Z 17001KT 14/08 A3005 RMK A01 T01360079  RH  069%=      5-min Rain = 0
KAHS 121238Z 17001KT 14/08 A3005 RMK A01 T01360080  RH  069%=      5-min Rain = 0
KAHS 121239Z 17001KT 14/08 A3005 RMK A01 T01360081  RH  069%=      5-min Rain = 0
KAHS 121240Z 17001KT 14/08 A3005 RMK A01 T01370081  RH  069%=      5-min Rain = 0
KAHS 121241Z 17001KT 14/08 A3005 RMK A01 T01370082  RH  069%=      5-min Rain = 0
KAHS 121242Z 18001KT 14/08 A3005 RMK A01 T01380083  RH  069%=      5-min Rain = 0
KAHS 121243Z 20001KT 14/08 A3005 RMK A01 T01390083  RH  069%=      5-min Rain = 0
KAHS 121244Z 22002KT 14/08 A3005 RMK A01 T01390083  RH  069%=      5-min Rain = 0
KAHS 121245Z 22002KT 14/08 A3005 RMK A01 T01390082  RH  068%=      5-min Rain = 0
KAHS 121246Z 23002KT 14/08 A3005 RMK A01 T01390082  RH  068%=      5-min Rain = 0
KAHS 121247Z 23002KT 14/08 A3005 RMK A01 T01390082  RH  068%=      5-min Rain = 0
KAHS 121248Z 23001KT 14/08 A3005 RMK A01 T01390083  RH  069%=      5-min Rain = 0
KAHS 121249Z 24001KT 14/08 A3005 RMK A01 T01400083  RH  068%=      5-min Rain = 0
KAHS 121250Z 24001KT 14/08 A3005 RMK A01 T01410083  RH  068%=      5-min Rain = 0
KAHS 121251Z 24000KT 14/08 A3005 RMK A01 T01420084  RH  068%=      5-min Rain = 0
KAHS 121252Z 00000KT 14/08 A3005 RMK A01 T01430083  RH  067%=      5-min Rain = 0
KAHS 121253Z 00000KT 15/08 A3006 RMK A01 T01450083  RH  067%=      5-min Rain = 0
KAHS 121254Z 00000KT 15/08 A3006 RMK A01 T01460083  RH  066%=      5-min Rain = 0
KAHS 121255Z 00000KT 15/08 A3006 RMK A01 T01480083  RH  065%=      5-min Rain = 0
KAHS 121256Z 24000KT 15/08 A3006 RMK A01 T01490083  RH  065%=      5-min Rain = 0
KAHS 121257Z 25001KT 15/08 A3006 RMK A01 T01500083  RH  064%=      5-min Rain = 0
KAHS 121258Z 25001KT 15/08 A3006 RMK A01 T01510083  RH  064%=      5-min Rain = 0
KAHS 121259Z 25000KT 15/08 A3006 RMK A01 T01510083  RH  064%=      5-min Rain = 0
KAHS 121300Z 25000KT 15/08 A3006 RMK A01 T01510083  RH  064%=      5-min Rain = 0
KAHS 121301Z 25000KT 15/08 A3006 RMK A01 T01510084  RH  064%=      5-min Rain = 0
KAHS 121302Z 25001KT 15/08 A3006 RMK A01 T01520084  RH  064%=      5-min Rain = 0
KAHS 121303Z 25001KT 15/09 A3006 RMK A01 T01530085  RH  064%=      5-min Rain = 0
KAHS 121304Z 25002KT 15/09 A3006 RMK A01 T01530086  RH  064%=      5-min Rain = 0
KAHS 121305Z 25002KT 15/09 A3006 RMK A01 T01540087  RH  064%=      5-min Rain = 0
KAHS 121306Z 25002KT 16/09 A3006 RMK A01 T01560088  RH  064%=      5-min Rain = 0
KAHS 121307Z 25002KT 16/09 A3006 RMK A01 T01560088  RH  064%=      5-min Rain = 0
KAHS 121308Z 25002KT 16/09 A3006 RMK A01 T01570089  RH  064%=      5-min Rain = 0
KAHS 121309Z 25002KT 16/09 A3006 RMK A01 T01590090  RH  064%=      5-min Rain = 0
KAHS 121310Z 25002KT 16/09 A3006 RMK A01 T01600091  RH  063%=      5-min Rain = 0
KAHS 121311Z 24001KT 16/09 A3006 RMK A01 T01610092  RH  063%=      5-min Rain = 0
KAHS 121312Z 22002KT 16/09 A3006 RMK A01 T01620092  RH  063%=      5-min Rain = 0
KAHS 121313Z 22002KT 16/09 A3006 RMK A01 T01640092  RH  063%=      5-min Rain = 0
KAHS 121314Z 22002KT 17/09 A3006 RMK A01 T01650093  RH  062%=      5-min Rain = 0
KAHS 121315Z 22002KT 17/09 A3006 RMK A01 T01660094  RH  062%=      5-min Rain = 0
KAHS 121316Z 22002KT 17/09 A3006 RMK A01 T01670094  RH  062%=      5-min Rain = 0
KAHS 121317Z 22001KT 17/09 A3006 RMK A01 T01680094  RH  062%=      5-min Rain = 0
KAHS 121318Z 21001KT 17/10 A3006 RMK A01 T01680095  RH  062%=      5-min Rain = 0
KAHS 121319Z 21001KT 17/10 A3006 RMK A01 T01690096  RH  062%=      5-min Rain = 0
KAHS 121320Z 21001KT 17/10 A3006 RMK A01 T01700097  RH  062%=      5-min Rain = 0
KAHS 121321Z 21001KT 17/10 A3006 RMK A01 T01710098  RH  062%=      5-min Rain = 0
KAHS 121322Z 22002KT 17/10 A3006 RMK A01 T01710098  RH  062%=      5-min Rain = 0
KAHS 121323Z 22002KT 17/10 A3006 RMK A01 T01720098  RH  062%=      5-min Rain = 0
KAHS 121324Z 22002KT 17/10 A3006 RMK A01 T01720099  RH  062%=      5-min Rain = 0
KAHS 121325Z 22001KT 17/10 A3006 RMK A01 T01720099  RH  062%=      5-min Rain = 0
KAHS 121326Z 23002KT 17/10 A3006 RMK A01 T01730099  RH  062%=      5-min Rain = 0
KAHS 121327Z 22001KT 17/10 A3006 RMK A01 T01730099  RH  062%=      5-min Rain = 0
KAHS 121328Z 21001KT 17/10 A3006 RMK A01 T01740099  RH  062%=      5-min Rain = 0
KAHS 121329Z 22001KT 18/10 A3006 RMK A01 T01750099  RH  061%=      5-min Rain = 0
KAHS 121330Z 22001KT 18/10 A3006 RMK A01 T01760099  RH  061%=      5-min Rain = 0
KAHS 121331Z 22001KT 18/10 A3006 RMK A01 T01770100  RH  060%=      5-min Rain = 0
KAHS 121332Z 24001KT 18/10 A3006 RMK A01 T01780100  RH  060%=      5-min Rain = 0
KAHS 121333Z 24002KT 18/10 A3006 RMK A01 T01780100  RH  060%=      5-min Rain = 0
KAHS 121334Z 23002KT 18/10 A3006 RMK A01 T01790100  RH  060%=      5-min Rain = 0
KAHS 121335Z 23002KT 18/10 A3006 RMK A01 T01800100  RH  060%=      5-min Rain = 0
KAHS 121336Z 23001KT 18/10 A3006 RMK A01 T01810100  RH  059%=      5-min Rain = 0
KAHS 121337Z 23001KT 18/10 A3006 RMK A01 T01820100  RH  059%=      5-min Rain = 0
KAHS 121338Z 22001KT 18/10 A3006 RMK A01 T01830100  RH  058%=      5-min Rain = 0
KAHS 121339Z 22000KT 18/10 A3006 RMK A01 T01840099  RH  058%=      5-min Rain = 0
KAHS 121340Z 22001KT 18/10 A3006 RMK A01 T01840099  RH  058%=      5-min Rain = 0
KAHS 121341Z 23001KT 19/10 A3006 RMK A01 T01850098  RH  057%=      5-min Rain = 0
KAHS 121342Z 24000KT 19/10 A3006 RMK A01 T01860098  RH  057%=      5-min Rain = 0
KAHS 121343Z 24001KT 19/10 A3006 RMK A01 T01870098  RH  056%=      5-min Rain = 0
KAHS 121344Z 25001KT 19/10 A3006 RMK A01 T01880098  RH  056%=      5-min Rain = 0
KAHS 121345Z 26001KT 19/10 A3006 RMK A01 T01900096  RH  054%=      5-min Rain = 0
KAHS 121346Z 27001KT 19/09 A3006 RMK A01 T01900094  RH  054%=      5-min Rain = 0
KAHS 121347Z 27000KT 19/09 A3006 RMK A01 T01910094  RH  053%=      5-min Rain = 0
KAHS 121348Z 00000KT 19/10 A3006 RMK A01 T01920095  RH  053%=      5-min Rain = 0
KAHS 121349Z 28000KT 19/10 A3006 RMK A01 T01930096  RH  053%=      5-min Rain = 0
KAHS 121350Z 29000KT 20/10 A3006 RMK A01 T01950096  RH  053%=      5-min Rain = 0
KAHS 121351Z 29000KT 20/10 A3006 RMK A01 T01960095  RH  052%=      5-min Rain = 0
KAHS 121352Z 00000KT 20/09 A3006 RMK A01 T01960093  RH  051%=      5-min Rain = 0
KAHS 121353Z 00000KT 20/09 A3006 RMK A01 T01970092  RH  051%=      5-min Rain = 0
KAHS 121354Z 00000KT 20/09 A3006 RMK A01 T01970093  RH  051%=      5-min Rain = 0
KAHS 121355Z 00000KT 20/09 A3006 RMK A01 T01980093  RH  051%=      5-min Rain = 0
KAHS 121356Z 00000KT 20/09 A3006 RMK A01 T01990093  RH  050%=      5-min Rain = 0
KAHS 121357Z 00000KT 20/09 A3006 RMK A01 T02000093  RH  050%=      5-min Rain = 0
KAHS 121358Z 28000KT 20/09 A3006 RMK A01 T02010093  RH  050%=      5-min Rain = 0
KAHS 121359Z 28001KT 20/09 A3006 RMK A01 T02020094  RH  050%=      5-min Rain = 0
KAHS 121400Z 25001KT 20/10 A3006 RMK A01 T02030095  RH  050%=      5-min Rain = 0
KAHS 121401Z 22000KT 20/10 A3006 RMK A01 T02040095  RH  049%=      5-min Rain = 0
KAHS 121402Z 20001KT 21/10 A3006 RMK A01 T02050095  RH  049%=      5-min Rain = 0
KAHS 121403Z 20001KT 21/09 A3006 RMK A01 T02060094  RH  049%=      5-min Rain = 0
KAHS 121404Z 20001KT 21/09 A3006 RMK A01 T02050094  RH  049%=      5-min Rain = 0
KAHS 121405Z 19001KT 21/09 A3006 RMK A01 T02060094  RH  049%=      5-min Rain = 0
KAHS 121406Z 20001KT 21/10 A3006 RMK A01 T02070095  RH  049%=      5-min Rain = 0
KAHS 121407Z 23001KT 21/10 A3006 RMK A01 T02080096  RH  049%=      5-min Rain = 0
KAHS 121408Z 21001KT 21/10 A3006 RMK A01 T02080096  RH  049%=      5-min Rain = 0
KAHS 121409Z 22002KT 21/10 A3006 RMK A01 T02070097  RH  049%=      5-min Rain = 0
KAHS 121410Z 25001KT 21/10 A3006 RMK A01 T02070096  RH  049%=      5-min Rain = 0
KAHS 121411Z 27001KT 21/10 A3006 RMK A01 T02070097  RH  049%=      5-min Rain = 0
KAHS 121412Z 25002KT 21/10 A3006 RMK A01 T02090097  RH  049%=      5-min Rain = 0
KAHS 121413Z 27001KT 21/10 A3006 RMK A01 T02090096  RH  048%=      5-min Rain = 0
KAHS 121414Z 27001KT 21/10 A3006 RMK A01 T02100096  RH  048%=      5-min Rain = 0
KAHS 121415Z 27002KT 21/10 A3006 RMK A01 T02100095  RH  048%=      5-min Rain = 0
KAHS 121416Z 23001KT 21/10 A3006 RMK A01 T02110095  RH  048%=      5-min Rain = 0
KAHS 121417Z 25001KT 21/09 A3006 RMK A01 T02110094  RH  047%=      5-min Rain = 0
KAHS 121418Z 26002KT 21/10 A3006 RMK A01 T02120096  RH  047%=      5-min Rain = 0
KAHS 121419Z 25002KT 21/10 A3006 RMK A01 T02130096  RH  047%=      5-min Rain = 0
KAHS 121420Z 25003KT 21/10 A3006 RMK A01 T02140095  RH  047%=      5-min Rain = 0
KAHS 121421Z 26002KT 22/10 A3006 RMK A01 T02150095  RH  046%=      5-min Rain = 0
KAHS 121422Z 25003KT 22/10 A3006 RMK A01 T02150095  RH  046%=      5-min Rain = 0
KAHS 121423Z 25003KT 22/09 A3006 RMK A01 T02150093  RH  046%=      5-min Rain = 0
KAHS 121424Z 26003KT 22/09 A3006 RMK A01 T02160094  RH  046%=      5-min Rain = 0
KAHS 121425Z 27003KT 22/09 A3006 RMK A01 T02170093  RH  045%=      5-min Rain = 0
KAHS 121426Z 26002KT 22/10 A3006 RMK A01 T02190095  RH  045%=      5-min Rain = 0
KAHS 121427Z 25002KT 22/10 A3006 RMK A01 T02200097  RH  046%=      5-min Rain = 0
KAHS 121428Z 26003KT 22/09 A3006 RMK A01 T02220094  RH  044%=      5-min Rain = 0
KAHS 121429Z 26004KT 22/10 A3006 RMK A01 T02210095  RH  045%=      5-min Rain = 0
KAHS 121430Z 26004KT 22/10 A3006 RMK A01 T02200097  RH  045%=      5-min Rain = 0
KAHS 121431Z 25004KT 22/10 A3006 RMK A01 T02210095  RH  044%=      5-min Rain = 0
KAHS 121432Z 26003KT 22/09 A3006 RMK A01 T02200094  RH  045%=      5-min Rain = 0
KAHS 121433Z 25003KT 22/10 A3006 RMK A01 T02210096  RH  045%=      5-min Rain = 0
KAHS 121434Z 24004KT 22/10 A3006 RMK A01 T02230096  RH  045%=      5-min Rain = 0
KAHS 121435Z 25004KT 22/10 A3006 RMK A01 T02230095  RH  044%=      5-min Rain = 0
KAHS 121436Z 26003KT 22/09 A3006 RMK A01 T02230092  RH  043%=      5-min Rain = 0
KAHS 121437Z 27003KT 22/09 A3006 RMK A01 T02220090  RH  043%=      5-min Rain = 0
KAHS 121438Z 28002KT 22/09 A3006 RMK A01 T02220090  RH  043%=      5-min Rain = 0
KAHS 121439Z 25002KT 23/09 A3006 RMK A01 T02250094  RH  043%=      5-min Rain = 0
KAHS 121440Z 26003KT 23/09 A3006 RMK A01 T02270093  RH  042%=      5-min Rain = 0
KAHS 121441Z 24003KT 23/09 A3006 RMK A01 T02270092  RH  042%=      5-min Rain = 0
KAHS 121442Z 25003KT 23/09 A3006 RMK A01 T02280090  RH  041%=      5-min Rain = 0
KAHS 121443Z 24003KT 23/09 A3006 RMK A01 T02280093  RH  042%=      5-min Rain = 0
KAHS 121444Z 25003KT 23/09 A3006 RMK A01 T02290094  RH  042%=      5-min Rain = 0
KAHS 121445Z 26003KT 23/09 A3006 RMK A01 T02290093  RH  042%=      5-min Rain = 0
KAHS 121446Z 26003KT 23/09 A3006 RMK A01 T02290094  RH  042%=      5-min Rain = 0
KAHS 121447Z 26003KT 23/09 A3006 RMK A01 T02280093  RH  042%=      5-min Rain = 0
KAHS 121448Z 28002KT 23/09 A3006 RMK A01 T02280092  RH  042%=      5-min Rain = 0
KAHS 121449Z 23001KT 23/09 A3006 RMK A01 T02300093  RH  042%=      5-min Rain = 0
KAHS 121450Z 22003KT 23/09 A3006 RMK A01 T02320094  RH  041%=      5-min Rain = 0
KAHS 121451Z 23004KT 24/10 A3006 RMK A01 T02350095  RH  041%=      5-min Rain = 0
KAHS 121452Z 22003KT 24/09 A3006 RMK A01 T02350092  RH  040%=      5-min Rain = 0
KAHS 121453Z 22002KT 24/09 A3006 RMK A01 T02350091  RH  040%=      5-min Rain = 0
KAHS 121454Z 21003KT 24/09 A3006 RMK A01 T02350092  RH  040%=      5-min Rain = 0
KAHS 121455Z 20002KT 24/09 A3006 RMK A01 T02360093  RH  040%=      5-min Rain = 0
KAHS 121456Z 21002KT 24/09 A3006 RMK A01 T02370093  RH  040%=      5-min Rain = 0
KAHS 121457Z 25003KT 24/09 A3005 RMK A01 T02380093  RH  040%=      5-min Rain = 0
KAHS 121458Z 25003KT 24/09 A3005 RMK A01 T02390093  RH  040%=      5-min Rain = 0
KAHS 121459Z 24003KT 24/09 A3005 RMK A01 T02400092  RH  039%=      5-min Rain = 0
KAHS 121500Z 23003KT 24/09 A3005 RMK A01 T02390091  RH  039%=      5-min Rain = 0
KAHS 121501Z 25004KT 24/09 A3005 RMK A01 T02390090  RH  039%=      5-min Rain = 0
KAHS 121502Z 25003KT 24/09 A3005 RMK A01 T02400091  RH  039%=      5-min Rain = 0
KAHS 121503Z 24003KT 24/09 A3005 RMK A01 T02410091  RH  038%=      5-min Rain = 0
KAHS 121504Z 23003KT 24/09 A3005 RMK A01 T02410090  RH  038%=      5-min Rain = 0
KAHS 121505Z 24005KT 24/09 A3005 RMK A01 T02420088  RH  038%=      5-min Rain = 0
KAHS 121506Z 24003KT 24/09 A3005 RMK A01 T02400088  RH  038%=      5-min Rain = 0
KAHS 121507Z 23002KT 24/09 A3005 RMK A01 T02410091  RH  038%=      5-min Rain = 0
KAHS 121508Z 22003KT 24/09 A3005 RMK A01 T02430090  RH  038%=      5-min Rain = 0
KAHS 121509Z 23004KT 24/09 A3005 RMK A01 T02430088  RH  037%=      5-min Rain = 0
KAHS 121510Z 22003KT 24/09 A3005 RMK A01 T02430090  RH  038%=      5-min Rain = 0
KAHS 121511Z 24003KT 24/09 A3005 RMK A01 T02440090  RH  038%=      5-min Rain = 0
KAHS 121512Z 23002KT 24/09 A3005 RMK A01 T02440091  RH  038%=      5-min Rain = 0
KAHS 121513Z 21004KT 25/09 A3005 RMK A01 T02450091  RH  038%=      5-min Rain = 0
KAHS 121514Z 21004KT 25/09 A3005 RMK A01 T02460089  RH  037%=      5-min Rain = 0
KAHS 121515Z 20004KT 25/09 A3005 RMK A01 T02450088  RH  037%=      5-min Rain = 0
KAHS 121516Z 22003KT 24/09 A3005 RMK A01 T02440089  RH  037%=      5-min Rain = 0
KAHS 121517Z 24003KT 25/09 A3005 RMK A01 T02460090  RH  037%=      5-min Rain = 0
KAHS 121518Z 22003KT 25/09 A3005 RMK A01 T02490089  RH  036%=      5-min Rain = 0
KAHS 121519Z 21003KT 25/09 A3005 RMK A01 T02500090  RH  036%=      5-min Rain = 0
KAHS 121520Z 20004KT 25/09 A3005 RMK A01 T02500090  RH  036%=      5-min Rain = 0
KAHS 121521Z 22003KT 25/09 A3005 RMK A01 T02510088  RH  036%=      5-min Rain = 0
KAHS 121522Z 21003KT 25/09 A3005 RMK A01 T02520090  RH  036%=      5-min Rain = 0
KAHS 121523Z 20001KT 25/09 A3005 RMK A01 T02530088  RH  035%=      5-min Rain = 0
KAHS 121524Z 20004KT 25/09 A3005 RMK A01 T02540087  RH  035%=      5-min Rain = 0
KAHS 121525Z 23003KT 26/09 A3005 RMK A01 T02550088  RH  035%=      5-min Rain = 0
KAHS 121526Z 23003KT 25/09 A3005 RMK A01 T02540087  RH  035%=      5-min Rain = 0
KAHS 121527Z 23003KT 25/09 A3005 RMK A01 T02540089  RH  035%=      5-min Rain = 0
KAHS 121528Z 26005KT 26/09 A3005 RMK A01 T02550087  RH  035%=      5-min Rain = 0
KAHS 121529Z 25005KT 26/09 A3005 RMK A01 T02550087  RH  034%=      5-min Rain = 0
KAHS 121530Z 25004KT 25/09 A3005 RMK A01 T02530088  RH  035%=      5-min Rain = 0
KAHS 121531Z 25004KT 25/09 A3005 RMK A01 T02540087  RH  035%=      5-min Rain = 0
KAHS 121532Z 23003KT 25/09 A3005 RMK A01 T02520088  RH  035%=      5-min Rain = 0
KAHS 121533Z 25004KT 25/09 A3005 RMK A01 T02540089  RH  035%=      5-min Rain = 0
KAHS 121534Z 24005KT 26/09 A3005 RMK A01 T02560089  RH  035%=      5-min Rain = 0
KAHS 121535Z 23004KT 26/09 A3005 RMK A01 T02560090  RH  035%=      5-min Rain = 0
KAHS 121536Z 23004KT 26/09 A3005 RMK A01 T02570090  RH  035%=      5-min Rain = 0
KAHS 121537Z 23004KT 26/09 A3005 RMK A01 T02560091  RH  035%=      5-min Rain = 0
KAHS 121538Z 28003KT 26/09 A3005 RMK A01 T02590093  RH  035%=      5-min Rain = 0
KAHS 121539Z 26002KT 26/09 A3005 RMK A01 T02620093  RH  034%=      5-min Rain = 0
KAHS 121540Z 22003KT 26/09 A3005 RMK A01 T02630089  RH  033%=      5-min Rain = 0
KAHS 121541Z 24003KT 26/09 A3005 RMK A01 T02590089  RH  034%=      5-min Rain = 0
KAHS 121542Z 23004KT 26/09 A3005 RMK A01 T02620092  RH  034%=      5-min Rain = 0
KAHS 121543Z 21003KT 26/09 A3005 RMK A01 T02640089  RH  033%=      5-min Rain = 0
KAHS 121544Z 20004KT 26/09 A3005 RMK A01 T02640091  RH  034%=      5-min Rain = 0
KAHS 121545Z 21004KT 26/09 A3005 RMK A01 T02640091  RH  034%=      5-min Rain = 0
KAHS 121546Z 24004KT 26/09 A3005 RMK A01 T02630090  RH  034%=      5-min Rain = 0
KAHS 121547Z 28005KT 27/09 A3005 RMK A01 T02650093  RH  034%=      5-min Rain = 0
KAHS 121548Z 27004KT 27/09 A3005 RMK A01 T02670090  RH  033%=      5-min Rain = 0
KAHS 121549Z 27003KT 27/09 A3005 RMK A01 T02660090  RH  033%=      5-min Rain = 0
KAHS 121550Z 27002KT 27/09 A3005 RMK A01 T02660090  RH  033%=      5-min Rain = 0
KAHS 121551Z 28001KT 27/09 A3005 RMK A01 T02670091  RH  033%=      5-min Rain = 0
KAHS 121552Z 27004KT 27/09 A3005 RMK A01 T02680092  RH  033%=      5-min Rain = 0
KAHS 121553Z 22003KT 27/09 A3005 RMK A01 T02670092  RH  033%=      5-min Rain = 0
KAHS 121554Z 22002KT 27/09 A3005 RMK A01 T02650092  RH  034%=      5-min Rain = 0
KAHS 121555Z 25004KT 27/09 A3005 RMK A01 T02670092  RH  033%=      5-min Rain = 0
KAHS 121556Z 25004KT 27/09 A3005 RMK A01 T02690090  RH  032%=      5-min Rain = 0
KAHS 121557Z 28002KT 27/09 A3005 RMK A01 T02690089  RH  032%=      5-min Rain = 0
KAHS 121558Z 28001KT 27/09 A3005 RMK A01 T02700088  RH  032%=      5-min Rain = 0
KAHS 121559Z 25004KT 27/09 A3005 RMK A01 T02720089  RH  032%=      5-min Rain = 0
KAHS 121600Z 27005KT 28/09 A3004 RMK A01 T02750087  RH  031%=      5-min Rain = 0
KAHS 121601Z 26006KT 27/09 A3004 RMK A01 T02740086  RH  031%=      5-min Rain = 0
KAHS 121602Z 26006KT 27/09 A3004 RMK A01 T02740086  RH  031%=      5-min Rain = 0
KAHS 121603Z 26004KT 27/09 A3004 RMK A01 T02720086  RH  031%=      5-min Rain = 0
KAHS 121604Z 24005KT 27/09 A3004 RMK A01 T02710086  RH  031%=      5-min Rain = 0
KAHS 121605Z 24005KT 27/09 A3004 RMK A01 T02690086  RH  032%=      5-min Rain = 0
KAHS 121606Z 27005KT 27/09 A3004 RMK A01 T02700089  RH  032%=      5-min Rain = 0
KAHS 121607Z 26004KT 27/09 A3004 RMK A01 T02740089  RH  031%=      5-min Rain = 0
KAHS 121608Z 25003KT 28/09 A3004 RMK A01 T02750086  RH  030%=      5-min Rain = 0
KAHS 121609Z 25003KT 27/09 A3004 RMK A01 T02730087  RH  031%=      5-min Rain = 0
KAHS 121610Z 26003KT 28/09 A3004 RMK A01 T02750089  RH  031%=      5-min Rain = 0
KAHS 121611Z 27004KT 28/09 A3004 RMK A01 T02750088  RH  031%=      5-min Rain = 0
KAHS 121612Z 28004KT 28/09 A3004 RMK A01 T02750088  RH  031%=      5-min Rain = 0
KAHS 121613Z 29002KT 27/09 A3004 RMK A01 T02740086  RH  031%=      5-min Rain = 0
KAHS 121614Z 26003KT 27/09 A3004 RMK A01 T02740088  RH  031%=      5-min Rain = 0
KAHS 121615Z 26005KT 28/09 A3004 RMK A01 T02760088  RH  031%=      5-min Rain = 0
KAHS 121616Z 28005KT 28/09 A3004 RMK A01 T02780088  RH  030%=      5-min Rain = 0
KAHS 121617Z 25005KT 28/09 A3004 RMK A01 T02790087  RH  030%=      5-min Rain = 0
KAHS 121618Z 23004KT 28/09 A3004 RMK A01 T02790086  RH  030%=      5-min Rain = 0
KAHS 121619Z 24005KT 28/09 A3004 RMK A01 T02790085  RH  029%=      5-min Rain = 0
KAHS 121620Z 24002KT 28/09 A3004 RMK A01 T02780085  RH  030%=      5-min Rain = 0
KAHS 121621Z 23002KT 28/09 A3004 RMK A01 T02790085  RH  029%=      5-min Rain = 0
KAHS 121622Z 23002KT 28/09 A3004 RMK A01 T02780085  RH  030%=      5-min Rain = 0
KAHS 121623Z 23001KT 28/09 A3004 RMK A01 T02790085  RH  030%=      5-min Rain = 0
KAHS 121624Z 20004KT 28/09 A3004 RMK A01 T02810088  RH  030%=      5-min Rain = 0
KAHS 121625Z 17004KT 28/09 A3004 RMK A01 T02820088  RH  030%=      5-min Rain = 0
KAHS 121626Z 17003KT 28/09 A3004 RMK A01 T02830088  RH  029%=      5-min Rain = 0
KAHS 121627Z 16002KT 29/09 A3004 RMK A01 T02850089  RH  029%=      5-min Rain = 0
KAHS 121628Z 24004KT 29/09 A3004 RMK A01 T02890089  RH  029%=      5-min Rain = 0
KAHS 121629Z 25005KT 29/09 A3004 RMK A01 T02880086  RH  028%=      5-min Rain = 0
KAHS 121630Z 26003KT 28/09 A3004 RMK A01 T02840088  RH  029%=      5-min Rain = 0
KAHS 121631Z 28001KT 29/09 A3004 RMK A01 T02850086  RH  029%=      5-min Rain = 0
KAHS 121632Z 29001KT 28/09 A3004 RMK A01 T02820086  RH  029%=      5-min Rain = 0
KAHS 121633Z 23002KT 28/09 A3004 RMK A01 T02820086  RH  029%=      5-min Rain = 0
KAHS 121634Z 21002KT 29/09 A3004 RMK A01 T02850089  RH  029%=      5-min Rain = 0
KAHS 121635Z 24002KT 29/09 A3004 RMK A01 T02880090  RH  029%=      5-min Rain = 0
KAHS 121636Z 19005KT 29/09 A3004 RMK A01 T02920089  RH  028%=      5-min Rain = 0
KAHS 121637Z 20005KT 29/09 A3004 RMK A01 T02910088  RH  028%=      5-min Rain = 0
KAHS 121638Z 20003KT 29/09 A3004 RMK A01 T02890088  RH  028%=      5-min Rain = 0
KAHS 121639Z 18002KT 29/09 A3003 RMK A01 T02880087  RH  028%=      5-min Rain = 0
KAHS 121640Z 19002KT 29/09 A3003 RMK A01 T02870088  RH  029%=      5-min Rain = 0
KAHS 121641Z 18003KT 29/09 A3003 RMK A01 T02880088  RH  029%=      5-min Rain = 0
KAHS 121642Z 20003KT 29/09 A3003 RMK A01 T02880088  RH  029%=      5-min Rain = 0
KAHS 121643Z 24005KT 29/09 A3003 RMK A01 T02900087  RH  028%=      5-min Rain = 0
KAHS 121644Z 25004KT 29/09 A3003 RMK A01 T02860086  RH  028%=      5-min Rain = 0
KAHS 121645Z 26005KT 29/09 A3003 RMK A01 T02850086  RH  029%=      5-min Rain = 0
KAHS 121646Z 26003KT 29/09 A3003 RMK A01 T02860086  RH  028%=      5-min Rain = 0
KAHS 121647Z 27003KT 29/09 A3003 RMK A01 T02900085  RH  028%=      5-min Rain = 0
KAHS 121648Z 29001KT 29/09 A3003 RMK A01 T02900085  RH  028%=      5-min Rain = 0
KAHS 121649Z 26001KT 29/09 A3003 RMK A01 T02930085  RH  027%=      5-min Rain = 0
KAHS 121650Z 27001KT 29/08 A3003 RMK A01 T02930084  RH  027%=      5-min Rain = 0
KAHS 121651Z 28005KT 30/09 A3003 RMK A01 T02950088  RH  027%=      5-min Rain = 0
KAHS 121652Z 28005KT 30/09 A3003 RMK A01 T02960085  RH  027%=      5-min Rain = 0
KAHS 121653Z 31005KT 29/09 A3003 RMK A01 T02920088  RH  028%=      5-min Rain = 0
KAHS 121654Z 32006KT 30/09 A3003 RMK A01 T02960088  RH  027%=      5-min Rain = 0
KAHS 121655Z 33005KT 30/09 A3003 RMK A01 T02960087  RH  027%=      5-min Rain = 0
KAHS 121656Z 00004KT 29/09 A3003 RMK A01 T02940087  RH  027%=      5-min Rain = 0
KAHS 121657Z 34003KT 30/09 A3003 RMK A01 T02960088  RH  027%=      5-min Rain = 0
KAHS 121658Z 26005KT 30/09 A3003 RMK A01 T02970086  RH  027%=      5-min Rain = 0
KAHS 121659Z 28003KT 30/09 A3003 RMK A01 T02960087  RH  027%=      5-min Rain = 0
KAHS 121700Z 24002KT 30/09 A3003 RMK A01 T02970086  RH  027%=      5-min Rain = 0
KAHS 121701Z 25003KT 30/09 A3003 RMK A01 T02960087  RH  027%=      5-min Rain = 0
KAHS 121702Z 22004KT 30/09 A3003 RMK A01 T02960089  RH  027%=      5-min Rain = 0
KAHS 121703Z 26004KT 30/09 A3003 RMK A01 T03000089  RH  027%=      5-min Rain = 0
KAHS 121704Z 27005KT 30/09 A3002 RMK A01 T03040087  RH  026%=      5-min Rain = 0
KAHS 121705Z 26005KT 30/09 A3002 RMK A01 T03020087  RH  026%=      5-min Rain = 0
KAHS 121706Z 27006KT 30/09 A3002 RMK A01 T03010087  RH  026%=      5-min Rain = 0
KAHS 121707Z 29005KT 30/09 A3002 RMK A01 T02990087  RH  027%=      5-min Rain = 0
KAHS 121708Z 29004KT 30/09 A3002 RMK A01 T02980086  RH  027%=      5-min Rain = 0
KAHS 121709Z 31003KT 30/09 A3002 RMK A01 T02960085  RH  027%=      5-min Rain = 0
KAHS 121710Z 28004KT 30/09 A3002 RMK A01 T02970087  RH  027%=      5-min Rain = 0
KAHS 121711Z 30004KT 30/09 A3002 RMK A01 T02990086  RH  026%=      5-min Rain = 0
KAHS 121712Z 27003KT 30/09 A3002 RMK A01 T02970086  RH  027%=      5-min Rain = 0
KAHS 121713Z 30002KT 30/09 A3002 RMK A01 T02960085  RH  027%=      5-min Rain = 0
KAHS 121714Z 04001KT 29/09 A3002 RMK A01 T02940085  RH  027%=      5-min Rain = 0
KAHS 121715Z 23002KT 30/09 A3002 RMK A01 T02950087  RH  027%=      5-min Rain = 0
KAHS 121716Z 23003KT 30/09 A3002 RMK A01 T02990087  RH  027%=      5-min Rain = 0
KAHS 121717Z 25004KT 30/09 A3002 RMK A01 T03030088  RH  026%=      5-min Rain = 0
KAHS 121718Z 26003KT 30/09 A3002 RMK A01 T03040088  RH  026%=      5-min Rain = 0
KAHS 121719Z 31005KT 31/09 A3002 RMK A01 T03050089  RH  026%=      5-min Rain = 0
KAHS 121720Z 29006KT 30/09 A3002 RMK A01 T03040086  RH  026%=      5-min Rain = 0
KAHS 121721Z 29006KT 30/09 A3002 RMK A01 T03020086  RH  026%=      5-min Rain = 0
KAHS 121722Z 28007KT 30/09 A3002 RMK A01 T03030086  RH  026%=      5-min Rain = 0
KAHS 121723Z 28005KT 30/09 A3002 RMK A01 T03030085  RH  026%=      5-min Rain = 0
KAHS 121724Z 30006KT 31/09 A3002 RMK A01 T03050087  RH  026%=      5-min Rain = 0
KAHS 121725Z 30005KT 30/08 A3002 RMK A01 T03040084  RH  025%=      5-min Rain = 0
KAHS 121726Z 29006KT 30/09 A3002 RMK A01 T03020085  RH  026%=      5-min Rain = 0
KAHS 121727Z 28004KT 30/09 A3002 RMK A01 T03030085  RH  026%=      5-min Rain = 0
KAHS 121728Z 28002KT 30/08 A3001 RMK A01 T03020084  RH  026%=      5-min Rain = 0
KAHS 121729Z 32004KT 30/08 A3001 RMK A01 T03020084  RH  026%=      5-min Rain = 0
KAHS 121730Z 32004KT 30/09 A3001 RMK A01 T03020086  RH  026%=      5-min Rain = 0
KAHS 121731Z 32003KT 31/08 A3001 RMK A01 T03060084  RH  025%=      5-min Rain = 0
KAHS 121732Z 00003KT 31/08 A3001 RMK A01 T03070084  RH  025%=      5-min Rain = 0
KAHS 121733Z 03002KT 31/08 A3001 RMK A01 T03060084  RH  025%=      5-min Rain = 0
KAHS 121734Z 04003KT 31/08 A3001 RMK A01 T03050084  RH  025%=      5-min Rain = 0
KAHS 121735Z 07003KT 30/08 A3001 RMK A01 T03030084  RH  025%=      5-min Rain = 0
KAHS 121736Z 08002KT 30/08 A3001 RMK A01 T03010084  RH  026%=      5-min Rain = 0
KAHS 121737Z 10002KT 30/09 A3001 RMK A01 T03000085  RH  026%=      5-min Rain = 0
KAHS 121738Z 36002KT 30/09 A3001 RMK A01 T03040087  RH  026%=      5-min Rain = 0
KAHS 121739Z 29003KT 31/09 A3001 RMK A01 T03070087  RH  026%=      5-min Rain = 0
KAHS 121740Z 26005KT 31/09 A3001 RMK A01 T03070086  RH  025%=      5-min Rain = 0
KAHS 121741Z 26004KT 30/09 A3001 RMK A01 T03020086  RH  026%=      5-min Rain = 0
KAHS 121742Z 24004KT 30/09 A3001 RMK A01 T03000085  RH  026%=      5-min Rain = 0
KAHS 121743Z 18001KT 30/09 A3001 RMK A01 T02990086  RH  026%=      5-min Rain = 0
KAHS 121744Z 14001KT 30/09 A3001 RMK A01 T03010085  RH  026%=      5-min Rain = 0
KAHS 121745Z 14002KT 30/09 A3001 RMK A01 T03040088  RH  026%=      5-min Rain = 0
KAHS 121746Z 14004KT 31/09 A3001 RMK A01 T03080087  RH  025%=      5-min Rain = 0
KAHS 121747Z 18001KT 31/09 A3001 RMK A01 T03100087  RH  025%=      5-min Rain = 0
KAHS 121748Z 34002KT 31/09 A3001 RMK A01 T03120087  RH  025%=      5-min Rain = 0
KAHS 121749Z 33002KT 31/09 A3001 RMK A01 T03110087  RH  025%=      5-min Rain = 0
KAHS 121750Z 30003KT 31/09 A3001 RMK A01 T03090086  RH  025%=      5-min Rain = 0
KAHS 121751Z 28007KT 31/09 A3001 RMK A01 T03100089  RH  025%=      5-min Rain = 0
KAHS 121752Z 29007KT 31/09 A3001 RMK A01 T03130088  RH  025%=      5-min Rain = 0
KAHS 121753Z 29004KT 31/09 A3001 RMK A01 T03140090  RH  025%=      5-min Rain = 0
KAHS 121754Z 31006KT 32/09 A3001 RMK A01 T03160086  RH  024%=      5-min Rain = 0
KAHS 121755Z 31005KT 31/09 A3001 RMK A01 T03110088  RH  025%=      5-min Rain = 0
KAHS 121756Z 31003KT 31/09 A3001 RMK A01 T03110085  RH  025%=      5-min Rain = 0
KAHS 121757Z 26001KT 31/09 A3001 RMK A01 T03090086  RH  025%=      5-min Rain = 0
KAHS 121758Z 24002KT 31/09 A30 RMK A01 T03090087  RH  025%=      5-min Rain = 0
KAHS 121759Z 34002KT 31/09 A30 RMK A01 T03060087  RH  025%=      5-min Rain = 0
KAHS 121800Z 01002KT 31/09 A30 RMK A01 T03070088  RH  026%=      5-min Rain = 0
KAHS 121801Z 05002KT 31/09 A30 RMK A01 T03080086  RH  025%=      5-min Rain = 0
KAHS 121802Z 05001KT 31/09 A30 RMK A01 T03090086  RH  025%=      5-min Rain = 0
KAHS 121803Z 31001KT 31/09 A30 RMK A01 T03100087  RH  025%=      5-min Rain = 0
KAHS 121804Z 18002KT 31/09 A30 RMK A01 T03140089  RH  025%=      5-min Rain = 0
KAHS 121805Z 13003KT 32/09 A30 RMK A01 T03160087  RH  024%=      5-min Rain = 0
KAHS 121806Z 12003KT 31/09 A30 RMK A01 T03130087  RH  025%=      5-min Rain = 0
KAHS 121807Z 16001KT 31/09 A30 RMK A01 T03120088  RH  025%=      5-min Rain = 0
KAHS 121808Z 18003KT 32/09 A30 RMK A01 T03150088  RH  024%=      5-min Rain = 0
KAHS 121809Z 17003KT 32/09 A30 RMK A01 T03150087  RH  024%=      5-min Rain = 0
KAHS 121810Z 15003KT 31/09 A30 RMK A01 T03130088  RH  025%=      5-min Rain = 0
KAHS 121811Z 17002KT 31/09 A30 RMK A01 T03140087  RH  025%=      5-min Rain = 0
KAHS 121812Z 16002KT 32/09 A30 RMK A01 T03150089  RH  025%=      5-min Rain = 0
KAHS 121813Z 19003KT 32/09 A30 RMK A01 T03170089  RH  024%=      5-min Rain = 0
KAHS 121814Z 19003KT 32/09 A2999 RMK A01 T03170088  RH  024%=      5-min Rain = 0
KAHS 121815Z 11002KT 32/09 A2999 RMK A01 T03180089  RH  024%=      5-min Rain = 0
KAHS 121816Z 16002KT 32/09 A2999 RMK A01 T03190090  RH  024%=      5-min Rain = 0
KAHS 121817Z 21004KT 32/09 A2999 RMK A01 T03230091  RH  024%=      5-min Rain = 0
KAHS 121818Z 25006KT 32/09 A2999 RMK A01 T03240088  RH  023%=      5-min Rain = 0
KAHS 121819Z 23003KT 32/09 A2999 RMK A01 T03170088  RH  024%=      5-min Rain = 0
KAHS 121820Z 19002KT 32/09 A2999 RMK A01 T03170089  RH  024%=      5-min Rain = 0
KAHS 121821Z 17002KT 32/09 A2999 RMK A01 T03160088  RH  024%=      5-min Rain = 0
KAHS 121822Z 12002KT 32/09 A2999 RMK A01 T03170089  RH  024%=      5-min Rain = 0
KAHS 121823Z 08002KT 32/09 A2999 RMK A01 T03160088  RH  024%=      5-min Rain = 0
KAHS 121824Z 14001KT 32/09 A2999 RMK A01 T03160089  RH  025%=      5-min Rain = 0
KAHS 121825Z 30001KT 32/09 A2999 RMK A01 T03200089  RH  024%=      5-min Rain = 0
KAHS 121826Z 27006KT 33/09 A2999 RMK A01 T03250089  RH  023%=      5-min Rain = 0
KAHS 121827Z 27006KT 32/09 A2999 RMK A01 T03240087  RH  023%=      5-min Rain = 0
KAHS 121828Z 28003KT 32/09 A2999 RMK A01 T03200087  RH  024%=      5-min Rain = 0
KAHS 121829Z 31007KT 32/09 A2999 RMK A01 T03210088  RH  024%=      5-min Rain = 0
KAHS 121830Z 29006KT 32/09 A2999 RMK A01 T03240086  RH  023%=      5-min Rain = 0
KAHS 121831Z 31004KT 32/09 A2999 RMK A01 T03190086  RH  024%=      5-min Rain = 0
KAHS 121832Z 32004KT 32/09 A2998 RMK A01 T03180086  RH  024%=      5-min Rain = 0
KAHS 121833Z 34002KT 32/09 A2998 RMK A01 T03170086  RH  024%=      5-min Rain = 0
KAHS 121834Z 26002KT 32/09 A2998 RMK A01 T03190086  RH  024%=      5-min Rain = 0
KAHS 121835Z 27003KT 32/09 A2998 RMK A01 T03230089  RH  024%=      5-min Rain = 0
KAHS 121836Z 34006KT 33/09 A2998 RMK A01 T03270088  RH  023%=      5-min Rain = 0
KAHS 121837Z 34005KT 32/09 A2998 RMK A01 T03230087  RH  023%=      5-min Rain = 0
KAHS 121838Z 33006KT 32/09 A2998 RMK A01 T03230088  RH  023%=      5-min Rain = 0
KAHS 121839Z 33007KT 33/09 A2998 RMK A01 T03250087  RH  023%=      5-min Rain = 0
KAHS 121840Z 33006KT 32/09 A2998 RMK A01 T03240086  RH  023%=      5-min Rain = 0
KAHS 121841Z 32004KT 32/09 A2998 RMK A01 T03190086  RH  024%=      5-min Rain = 0
KAHS 121842Z 34003KT 32/09 A2998 RMK A01 T03190086  RH  024%=      5-min Rain = 0
KAHS 121843Z 32002KT 32/09 A2998 RMK A01 T03190086  RH  024%=      5-min Rain = 0
KAHS 121844Z 34002KT 32/09 A2998 RMK A01 T03200086  RH  023%=      5-min Rain = 0
KAHS 121845Z 34002KT 32/09 A2998 RMK A01 T03200085  RH  023%=      5-min Rain = 0
KAHS 121846Z 28000KT 32/09 A2998 RMK A01 T03200086  RH  024%=      5-min Rain = 0
KAHS 121847Z 24007KT 32/09 A2998 RMK A01 T03240088  RH  023%=      5-min Rain = 0
KAHS 121848Z 25008KT 33/09 A2997 RMK A01 T03260088  RH  023%=      5-min Rain = 0
KAHS 121849Z 24007KT 33/09 A2997 RMK A01 T03260088  RH  023%=      5-min Rain = 0
KAHS 121850Z 24006KT 33/09 A2997 RMK A01 T03250088  RH  023%=      5-min Rain = 0
KAHS 121851Z 26004KT 32/09 A2997 RMK A01 T03230088  RH  023%=      5-min Rain = 0
KAHS 121852Z 25007KT 33/09 A2997 RMK A01 T03250087  RH  023%=      5-min Rain = 0
KAHS 121853Z 24006KT 33/09 A2997 RMK A01 T03250087  RH  023%=      5-min Rain = 0
KAHS 121854Z 24006KT 32/09 A2997 RMK A01 T03240087  RH  023%=      5-min Rain = 0
KAHS 121855Z 22006KT 33/09 A2997 RMK A01 T03270088  RH  023%=      5-min Rain = 0
KAHS 121856Z 20002KT 32/09 A2997 RMK A01 T03230086  RH  023%=      5-min Rain = 0
KAHS 121857Z 31000KT 32/09 A2997 RMK A01 T03220087  RH  023%=      5-min Rain = 0
KAHS 121858Z 25003KT 33/09 A2997 RMK A01 T03250086  RH  023%=      5-min Rain = 0
KAHS 121859Z 20002KT 33/09 A2997 RMK A01 T03250087  RH  023%=      5-min Rain = 0
KAHS 121900Z 24004KT 33/09 A2997 RMK A01 T03290088  RH  023%=      5-min Rain = 0
KAHS 121901Z 26002KT 33/09 A2997 RMK A01 T03320088  RH  022%=      5-min Rain = 0
KAHS 121902Z 23003KT 33/09 A2997 RMK A01 T03330087  RH  022%=      5-min Rain = 0
KAHS 121903Z 24003KT 33/09 A2997 RMK A01 T03320088  RH  022%=      5-min Rain = 0
KAHS 121904Z 19002KT 33/09 A2997 RMK A01 T03330088  RH  022%=      5-min Rain = 0
KAHS 121905Z 25002KT 33/09 A2997 RMK A01 T03340087  RH  022%=      5-min Rain = 0
KAHS 121906Z 21003KT 33/09 A2997 RMK A01 T03300086  RH  022%=      5-min Rain = 0
KAHS 121907Z 28002KT 33/09 A2997 RMK A01 T03260087  RH  023%=      5-min Rain = 0
KAHS 121908Z 30003KT 33/09 A2996 RMK A01 T03290087  RH  023%=      5-min Rain = 0
KAHS 121909Z 29002KT 33/09 A2996 RMK A01 T03290086  RH  022%=      5-min Rain = 0
KAHS 121910Z 32001KT 33/09 A2996 RMK A01 T03270085  RH  022%=      5-min Rain = 0
KAHS 121911Z 09001KT 33/09 A2996 RMK A01 T03250085  RH  023%=      5-min Rain = 0
KAHS 121912Z 03002KT 32/09 A2996 RMK A01 T03240086  RH  023%=      5-min Rain = 0
KAHS 121913Z 03003KT 33/09 A2996 RMK A01 T03270088  RH  023%=      5-min Rain = 0
KAHS 121914Z 02002KT 33/09 A2996 RMK A01 T03310088  RH  022%=      5-min Rain = 0
KAHS 121915Z 23001KT 34/09 A2996 RMK A01 T03350088  RH  022%=      5-min Rain = 0
KAHS 121916Z 19004KT 34/09 A2996 RMK A01 T03380088  RH  022%=      5-min Rain = 0
KAHS 121917Z 18004KT 33/09 A2996 RMK A01 T03340087  RH  022%=      5-min Rain = 0
KAHS 121918Z 17004KT 33/09 A2996 RMK A01 T03320088  RH  022%=      5-min Rain = 0
KAHS 121919Z 20005KT 33/09 A2996 RMK A01 T03320087  RH  022%=      5-min Rain = 0
KAHS 121920Z 21003KT 33/09 A2996 RMK A01 T03290087  RH  022%=      5-min Rain = 0
KAHS 121921Z 29002KT 33/09 A2996 RMK A01 T03290087  RH  022%=      5-min Rain = 0
KAHS 121922Z 32006KT 33/09 A2995 RMK A01 T03330087  RH  022%=      5-min Rain = 0
KAHS 121923Z 33006KT 34/09 A2995 RMK A01 T03370086  RH  021%=      5-min Rain = 0
KAHS 121924Z 28005KT 34/09 A2995 RMK A01 T03380087  RH  021%=      5-min Rain = 0
KAHS 121925Z 30004KT 34/09 A2995 RMK A01 T03380086  RH  021%=      5-min Rain = 0
KAHS 121926Z 28004KT 34/09 A2995 RMK A01 T03350086  RH  021%=      5-min Rain = 0
KAHS 121927Z 27003KT 33/09 A2995 RMK A01 T03340086  RH  022%=      5-min Rain = 0
KAHS 121928Z 27005KT 34/09 A2995 RMK A01 T03380088  RH  022%=      5-min Rain = 0
KAHS 121929Z 26007KT 34/09 A2995 RMK A01 T03440088  RH  021%=      5-min Rain = 0
KAHS 121930Z 26006KT 35/09 A2995 RMK A01 T03460086  RH  020%=      5-min Rain = 0
KAHS 121931Z 25007KT 34/09 A2995 RMK A01 T03380085  RH  021%=      5-min Rain = 0
KAHS 121932Z 27005KT 33/09 A2995 RMK A01 T03340085  RH  022%=      5-min Rain = 0
KAHS 121933Z 26005KT 34/09 A2995 RMK A01 T03350085  RH  021%=      5-min Rain = 0
KAHS 121934Z 28006KT 33/09 A2995 RMK A01 T03340085  RH  022%=      5-min Rain = 0
KAHS 121935Z 28006KT 33/09 A2995 RMK A01 T03330086  RH  022%=      5-min Rain = 0
KAHS 121936Z 28008KT 34/09 A2994 RMK A01 T03360086  RH  021%=      5-min Rain = 0
KAHS 121937Z 30003KT 34/09 A2995 RMK A01 T03350087  RH  022%=      5-min Rain = 0
KAHS 121938Z 32003KT 34/09 A2995 RMK A01 T03390086  RH  021%=      5-min Rain = 0
KAHS 121939Z 01004KT 34/09 A2994 RMK A01 T03410087  RH  021%=      5-min Rain = 0
KAHS 121940Z 01003KT 34/08 A2994 RMK A01 T03400084  RH  021%=      5-min Rain = 0
KAHS 121941Z 05003KT 34/09 A2994 RMK A01 T03360085  RH  021%=      5-min Rain = 0
KAHS 121942Z 08005KT 34/09 A2994 RMK A01 T03370085  RH  021%=      5-min Rain = 0
KAHS 121943Z 09003KT 34/09 A2994 RMK A01 T03350086  RH  021%=      5-min Rain = 0
KAHS 121944Z 06004KT 34/09 A2994 RMK A01 T03360086  RH  021%=      5-min Rain = 0
KAHS 121945Z 08003KT 34/09 A2994 RMK A01 T03370086  RH  021%=      5-min Rain = 0
KAHS 121946Z 07004KT 34/09 A2994 RMK A01 T03380085  RH  021%=      5-min Rain = 0
KAHS 121947Z 09005KT 34/09 A2994 RMK A01 T03360085  RH  021%=      5-min Rain = 0
KAHS 121948Z 09003KT 33/09 A2994 RMK A01 T03340085  RH  022%=      5-min Rain = 0
KAHS 121949Z 10003KT 34/09 A2994 RMK A01 T03360087  RH  022%=      5-min Rain = 0
KAHS 121950Z 10002KT 34/09 A2994 RMK A01 T03390086  RH  021%=      5-min Rain = 0
KAHS 121951Z 10003KT 34/09 A2993 RMK A01 T03410087  RH  021%=      5-min Rain = 0
KAHS 121952Z 02003KT 34/09 A2993 RMK A01 T03420086  RH  021%=      5-min Rain = 0
KAHS 121953Z 31005KT 34/09 A2993 RMK A01 T03430086  RH  021%=      5-min Rain = 0
KAHS 121954Z 27007KT 35/09 A2993 RMK A01 T03450087  RH  021%=      5-min Rain = 0
KAHS 121955Z 28007KT 35/09 A2993 RMK A01 T03460086  RH  020%=      5-min Rain = 0
KAHS 121956Z 29005KT 34/09 A2993 RMK A01 T03420085  RH  021%=      5-min Rain = 0
KAHS 121957Z 28004KT 34/09 A2993 RMK A01 T03390086  RH  021%=      5-min Rain = 0
KAHS 121958Z 27003KT 34/09 A2993 RMK A01 T03410085  RH  021%=      5-min Rain = 0
KAHS 121959Z 33003KT 34/09 A2993 RMK A01 T03420086  RH  021%=      5-min Rain = 0
KAHS 122000Z 01002KT 34/09 A2993 RMK A01 T03440085  RH  020%=      5-min Rain = 0
KAHS 122001Z 04004KT 34/09 A2993 RMK A01 T03440085  RH  020%=      5-min Rain = 0
KAHS 122002Z 04007G12KT 34/09 A2993 RMK A01 T03430086  RH  021%=      5-min Rain = 0
KAHS 122003Z 03007KT 34/08 A2993 RMK A01 T03430084  RH  020%=      5-min Rain = 0
KAHS 122004Z 04003KT 34/08 A2993 RMK A01 T03400084  RH  021%=      5-min Rain = 0
KAHS 122005Z 06005KT 34/09 A2993 RMK A01 T03400085  RH  021%=      5-min Rain = 0
KAHS 122006Z 02006KT 34/09 A2992 RMK A01 T03430087  RH  021%=      5-min Rain = 0
KAHS 122007Z 02007KT 35/09 A2992 RMK A01 T03460086  RH  020%=      5-min Rain = 0
KAHS 122008Z 01005KT 35/08 A2992 RMK A01 T03460084  RH  020%=      5-min Rain = 0
KAHS 122009Z 01004KT 34/08 A2992 RMK A01 T03430083  RH  020%=      5-min Rain = 0
KAHS 122010Z 01002KT 34/08 A2992 RMK A01 T03410084  RH  021%=      5-min Rain = 0
KAHS 122011Z 32003KT 35/09 A2992 RMK A01 T03460085  RH  020%=      5-min Rain = 0
KAHS 122012Z 25003KT 35/09 A2992 RMK A01 T03460085  RH  020%=      5-min Rain = 0
KAHS 122013Z 24005KT 35/09 A2992 RMK A01 T03460085  RH  020%=      5-min Rain = 0
KAHS 122014Z 20004KT 34/09 A2992 RMK A01 T03440085  RH  020%=      5-min Rain = 0
KAHS 122015Z 17004KT 34/09 A2992 RMK A01 T03410085  RH  021%=      5-min Rain = 0
KAHS 122016Z 17005KT 34/09 A2992 RMK A01 T03420086  RH  021%=      5-min Rain = 0
KAHS 122017Z 22005KT 34/09 A2992 RMK A01 T03440085  RH  020%=      5-min Rain = 0
KAHS 122018Z 25003KT 34/09 A2992 RMK A01 T03430086  RH  021%=      5-min Rain = 0
KAHS 122019Z 01003KT 34/09 A2992 RMK A01 T03440085  RH  020%=      5-min Rain = 0
KAHS 122020Z 03003KT 34/09 A2992 RMK A01 T03440085  RH  020%=      5-min Rain = 0
KAHS 122021Z 15001KT 34/08 A2992 RMK A01 T03430083  RH  020%=      5-min Rain = 0
KAHS 122022Z 02004KT 34/09 A2992 RMK A01 T03390085  RH  021%=      5-min Rain = 0
KAHS 122023Z 04004KT 34/08 A2992 RMK A01 T03410084  RH  021%=      5-min Rain = 0
KAHS 122024Z 08002KT 34/08 A2991 RMK A01 T03420083  RH  020%=      5-min Rain = 0
KAHS 122025Z 06002KT 34/08 A2991 RMK A01 T03400083  RH  021%=      5-min Rain = 0
KAHS 122026Z 06003KT 34/09 A2991 RMK A01 T03420085  RH  021%=      5-min Rain = 0
KAHS 122027Z 05002KT 34/08 A2991 RMK A01 T03440084  RH  020%=      5-min Rain = 0
KAHS 122028Z 10001KT 35/09 A2991 RMK A01 T03450085  RH  020%=      5-min Rain = 0
KAHS 122029Z 12004KT 35/09 A2991 RMK A01 T03460085  RH  020%=      5-min Rain = 0
KAHS 122030Z 12004KT 35/09 A2991 RMK A01 T03460085  RH  020%=      5-min Rain = 0
KAHS 122031Z 12002KT 34/08 A2991 RMK A01 T03440083  RH  020%=      5-min Rain = 0
KAHS 122032Z 01002KT 34/08 A2991 RMK A01 T03430084  RH  020%=      5-min Rain = 0
KAHS 122033Z 33003KT 35/08 A2991 RMK A01 T03460084  RH  020%=      5-min Rain = 0
KAHS 122034Z 32003KT 35/08 A2991 RMK A01 T03470084  RH  020%=      5-min Rain = 0
KAHS 122035Z 32001KT 35/08 A2991 RMK A01 T03480083  RH  020%=      5-min Rain = 0
KAHS 122036Z 28000KT 35/08 A2991 RMK A01 T03480084  RH  020%=      5-min Rain = 0
KAHS 122037Z 08002KT 35/08 A2991 RMK A01 T03510084  RH  020%=      5-min Rain = 0
KAHS 122038Z 06004KT 35/08 A2991 RMK A01 T03500083  RH  019%=      5-min Rain = 0
KAHS 122039Z 02006KT 35/08 A2991 RMK A01 T03480084  RH  020%=      5-min Rain = 0
KAHS 122040Z 34004KT 35/08 A2991 RMK A01 T03450083  RH  020%=      5-min Rain = 0
KAHS 122041Z 01002KT 35/08 A299 RMK A01 T03450084  RH  020%=      5-min Rain = 0
KAHS 122042Z 31002KT 34/08 A299 RMK A01 T03430083  RH  020%=      5-min Rain = 0
KAHS 122043Z 05004KT 34/08 A299 RMK A01 T03410084  RH  021%=      5-min Rain = 0
KAHS 122044Z 05007KT 34/08 A299 RMK A01 T03440084  RH  020%=      5-min Rain = 0
KAHS 122045Z 06005KT 35/08 A299 RMK A01 T03450084  RH  020%=      5-min Rain = 0
KAHS 122046Z 08007KT 35/08 A299 RMK A01 T03450084  RH  020%=      5-min Rain = 0
KAHS 122047Z 09005KT 34/08 A299 RMK A01 T03440084  RH  020%=      5-min Rain = 0
KAHS 122048Z 11001KT 34/08 A299 RMK A01 T03440081  RH  020%=      5-min Rain = 0
KAHS 122049Z 11001KT 35/08 A299 RMK A01 T03460082  RH  020%=      5-min Rain = 0
KAHS 122050Z 06005G11KT 35/08 A299 RMK A01 T03500084  RH  020%=      5-min Rain = 0
KAHS 122051Z 33009G20KT 35/08 A2989 RMK A01 T03520083  RH  019%=      5-min Rain = 0
KAHS 122052Z 34005KT 35/08 A299 RMK A01 T03510084  RH  019%=      5-min Rain = 0
KAHS 122053Z 02005KT 36/08 A299 RMK A01 T03550083  RH  019%=      5-min Rain = 0
KAHS 122054Z 02004KT 35/08 A299 RMK A01 T03520082  RH  019%=      5-min Rain = 0
KAHS 122055Z 34004KT 35/08 A299 RMK A01 T03520083  RH  019%=      5-min Rain = 0
KAHS 122056Z 31005KT 35/08 A299 RMK A01 T03540083  RH  019%=      5-min Rain = 0
KAHS 122057Z 31006KT 35/08 A299 RMK A01 T03540080  RH  019%=      5-min Rain = 0
KAHS 122058Z 33004KT 35/08 A299 RMK A01 T03480080  RH  019%=      5-min Rain = 0
KAHS 122059Z 29003KT 35/08 A299 RMK A01 T03480081  RH  019%=      5-min Rain = 0
KAHS 122100Z 25002KT 35/08 A299 RMK A01 T03490081  RH  019%=      5-min Rain = 0
KAHS 122101Z 31000KT 35/08 A2989 RMK A01 T03490081  RH  019%=      5-min Rain = 0
KAHS 122102Z 34000KT 35/08 A2989 RMK A01 T03510082  RH  019%=      5-min Rain = 0
KAHS 122103Z 30005KT 35/08 A2989 RMK A01 T03540083  RH  019%=      5-min Rain = 0
KAHS 122104Z 29006KT 36/08 A2989 RMK A01 T03550082  RH  019%=      5-min Rain = 0
KAHS 122105Z 29006KT 35/08 A2989 RMK A01 T03540083  RH  019%=      5-min Rain = 0
KAHS 122106Z 30004KT 35/08 A2989 RMK A01 T03530081  RH  019%=      5-min Rain = 0
KAHS 122107Z 31005KT 35/08 A2989 RMK A01 T03490081  RH  019%=      5-min Rain = 0
KAHS 122108Z 28005KT 35/08 A2989 RMK A01 T03480082  RH  020%=      5-min Rain = 0
KAHS 122109Z 33004KT 35/08 A2989 RMK A01 T03500083  RH  019%=      5-min Rain = 0
KAHS 122110Z 35007KT 35/08 A2989 RMK A01 T03520083  RH  019%=      5-min Rain = 0
KAHS 122111Z 35006KT 36/08 A2989 RMK A01 T03550079  RH  018%=      5-min Rain = 0
KAHS 122112Z 34006KT 36/08 A2989 RMK A01 T03550080  RH  019%=      5-min Rain = 0
KAHS 122113Z 34005KT 36/08 A2989 RMK A01 T03550079  RH  018%=      5-min Rain = 0
KAHS 122114Z 01007KT 36/08 A2989 RMK A01 T03560079  RH  018%=      5-min Rain = 0
KAHS 122115Z 03007KT 36/08 A2989 RMK A01 T03560079  RH  018%=      5-min Rain = 0
KAHS 122116Z 06005KT 36/08 A2989 RMK A01 T03550076  RH  018%=      5-min Rain = 0
KAHS 122117Z 04008KT 35/08 A2988 RMK A01 T03530078  RH  018%=      5-min Rain = 0
KAHS 122118Z 05005KT 35/08 A2989 RMK A01 T03520077  RH  018%=      5-min Rain = 0
KAHS 122119Z 05003KT 35/08 A2989 RMK A01 T03520077  RH  018%=      5-min Rain = 0
KAHS 122120Z 04001KT 35/08 A2989 RMK A01 T03530077  RH  018%=      5-min Rain = 0
KAHS 122121Z 02003KT 36/08 A2989 RMK A01 T03560078  RH  018%=      5-min Rain = 0
KAHS 122122Z 01003KT 36/08 A2989 RMK A01 T03550076  RH  018%=      5-min Rain = 0
KAHS 122123Z 35004KT 35/08 A2989 RMK A01 T03530078  RH  019%=      5-min Rain = 0
KAHS 122124Z 03003KT 35/08 A2988 RMK A01 T03520078  RH  019%=      5-min Rain = 0
KAHS 122125Z 29006G13KT 35/08 A2988 RMK A01 T03540080  RH  019%=      5-min Rain = 0
KAHS 122126Z 31013G19KT 36/08 A2987 RMK A01 T03590082  RH  018%=      5-min Rain = 0
KAHS 122127Z 01015G21KT 36/08 A2988 RMK A01 T03620081  RH  018%=      5-min Rain = 0
KAHS 122128Z 36013KT 36/08 A2988 RMK A01 T03560083  RH  019%=      5-min Rain = 0
KAHS 122129Z 35010KT 36/08 A2989 RMK A01 T03560083  RH  019%=      5-min Rain = 0
KAHS 122130Z 36009KT 36/08 A2989 RMK A01 T03550082  RH  019%=      5-min Rain = 0
KAHS 122131Z 35007KT 35/08 A2988 RMK A01 T03540080  RH  019%=      5-min Rain = 0
KAHS 122132Z 03005KT 35/08 A2988 RMK A01 T03520083  RH  019%=      5-min Rain = 0
KAHS 122133Z 35008KT 36/08 A2988 RMK A01 T03560081  RH  019%=      5-min Rain = 0
KAHS 122134Z 00008KT 35/08 A2988 RMK A01 T03530079  RH  019%=      5-min Rain = 0
KAHS 122135Z 01005KT 35/08 A2988 RMK A01 T03510080  RH  019%=      5-min Rain = 0
KAHS 122136Z 02007KT 35/08 A2988 RMK A01 T03530081  RH  019%=      5-min Rain = 0
KAHS 122137Z 34006KT 35/08 A2988 RMK A01 T03530079  RH  019%=      5-min Rain = 0
KAHS 122138Z 35005KT 35/08 A2988 RMK A01 T03500081  RH  019%=      5-min Rain = 0
KAHS 122139Z 02006KT 35/08 A2988 RMK A01 T03530082  RH  019%=      5-min Rain = 0
KAHS 122140Z 02005KT 36/08 A2988 RMK A01 T03560080  RH  018%=      5-min Rain = 0
KAHS 122141Z 02003KT 35/08 A2988 RMK A01 T03530078  RH  019%=      5-min Rain = 0
KAHS 122142Z 04005KT 35/08 A2988 RMK A01 T03510079  RH  019%=      5-min Rain = 0
KAHS 122143Z 04005KT 35/08 A2988 RMK A01 T03500078  RH  019%=      5-min Rain = 0
KAHS 122144Z 06004KT 35/08 A2988 RMK A01 T03480079  RH  019%=      5-min Rain = 0
KAHS 122145Z 06005KT 35/08 A2988 RMK A01 T03500080  RH  019%=      5-min Rain = 0
KAHS 122146Z 04005KT 35/08 A2988 RMK A01 T03510079  RH  019%=      5-min Rain = 0
KAHS 122147Z 08004KT 35/08 A2988 RMK A01 T03500079  RH  019%=      5-min Rain = 0
KAHS 122148Z 11004KT 35/08 A2988 RMK A01 T03500080  RH  019%=      5-min Rain = 0
KAHS 122149Z 12004KT 35/08 A2988 RMK A01 T03510081  RH  019%=      5-min Rain = 0
KAHS 122150Z 13004KT 35/08 A2988 RMK A01 T03540081  RH  019%=      5-min Rain = 0
KAHS 122151Z 15003KT 36/08 A2988 RMK A01 T03550080  RH  019%=      5-min Rain = 0
KAHS 122152Z 14001KT 36/08 A2988 RMK A01 T03550080  RH  019%=      5-min Rain = 0
KAHS 122153Z 14003KT 36/08 A2988 RMK A01 T03560080  RH  018%=      5-min Rain = 0
KAHS 122154Z 15002KT 36/08 A2988 RMK A01 T03570080  RH  018%=      5-min Rain = 0
KAHS 122155Z 15002KT 36/08 A2988 RMK A01 T03570081  RH  018%=      5-min Rain = 0
KAHS 122156Z 07003KT 36/08 A2987 RMK A01 T03570081  RH  018%=      5-min Rain = 0
KAHS 122157Z 08005KT 36/08 A2987 RMK A01 T03550082  RH  019%=      5-min Rain = 0
KAHS 122158Z 05004G9KT 35/08 A2987 RMK A01 T03520083  RH  019%=      5-min Rain = 0
KAHS 122159Z 03008KT 35/08 A2987 RMK A01 T03540082  RH  019%=      5-min Rain = 0
KAHS 122200Z 04008KT 35/08 A2987 RMK A01 T03500081  RH  019%=      5-min Rain = 0
KAHS 122201Z 04007KT 35/08 A2987 RMK A01 T03490081  RH  019%=      5-min Rain = 0
KAHS 122202Z 05007KT 35/08 A2987 RMK A01 T03490082  RH  019%=      5-min Rain = 0
KAHS 122203Z 04007KT 35/08 A2987 RMK A01 T03520083  RH  019%=      5-min Rain = 0
KAHS 122204Z 06007KT 36/08 A2987 RMK A01 T03550082  RH  019%=      5-min Rain = 0
KAHS 122205Z 07007KT 35/08 A2987 RMK A01 T03540083  RH  019%=      5-min Rain = 0
KAHS 122206Z 07010KT 36/08 A2987 RMK A01 T03570082  RH  019%=      5-min Rain = 0
KAHS 122207Z 05009KT 35/08 A2987 RMK A01 T03530083  RH  019%=      5-min Rain = 0
KAHS 122208Z 06009KT 35/08 A2987 RMK A01 T03540083  RH  019%=      5-min Rain = 0
KAHS 122209Z 05007KT 35/08 A2987 RMK A01 T03530082  RH  019%=      5-min Rain = 0
KAHS 122210Z 05006KT 36/08 A2987 RMK A01 T03550083  RH  019%=      5-min Rain = 0
KAHS 122211Z 01003KT 36/08 A2987 RMK A01 T03560082  RH  019%=      5-min Rain = 0
KAHS 122212Z 08003KT 36/08 A2987 RMK A01 T03570081  RH  019%=      5-min Rain = 0
KAHS 122213Z 08006KT 36/08 A2987 RMK A01 T03550081  RH  019%=      5-min Rain = 0
KAHS 122214Z 12003KT 35/08 A2987 RMK A01 T03490080  RH  019%=      5-min Rain = 0
KAHS 122215Z 04004KT 35/08 A2987 RMK A01 T03470082  RH  020%=      5-min Rain = 0
KAHS 122216Z 04007KT 35/08 A2987 RMK A01 T03490082  RH  019%=      5-min Rain = 0
KAHS 122217Z 04006KT 35/08 A2987 RMK A01 T03490082  RH  019%=      5-min Rain = 0
KAHS 122218Z 03003KT 35/08 A2987 RMK A01 T03480081  RH  019%=      5-min Rain = 0
KAHS 122219Z 03003KT 35/08 A2987 RMK A01 T03470082  RH  020%=      5-min Rain = 0
KAHS 122220Z 33002KT 35/08 A2987 RMK A01 T03470081  RH  020%=      5-min Rain = 0
KAHS 122221Z 28001KT 35/08 A2987 RMK A01 T03490081  RH  019%=      5-min Rain = 0
KAHS 122222Z 25001KT 35/08 A2987 RMK A01 T03500081  RH  019%=      5-min Rain = 0
KAHS 122223Z 00001KT 35/08 A2987 RMK A01 T03500081  RH  019%=      5-min Rain = 0
KAHS 122224Z 11001KT 35/08 A2987 RMK A01 T03510082  RH  019%=      5-min Rain = 0
KAHS 122225Z 13003KT 35/08 A2987 RMK A01 T03510082  RH  019%=      5-min Rain = 0
KAHS 122226Z 14003KT 35/08 A2987 RMK A01 T03530084  RH  019%=      5-min Rain = 0
KAHS 122227Z 03001KT 36/08 A2987 RMK A01 T03550081  RH  019%=      5-min Rain = 0
KAHS 122228Z 11003KT 35/08 A2987 RMK A01 T03520082  RH  019%=      5-min Rain = 0
KAHS 122229Z 12002KT 35/08 A2987 RMK A01 T03520081  RH  019%=      5-min Rain = 0
KAHS 122230Z 11002KT 35/08 A2987 RMK A01 T03520082  RH  019%=      5-min Rain = 0
KAHS 122231Z 12004KT 35/08 A2987 RMK A01 T03520081  RH  019%=      5-min Rain = 0
KAHS 122232Z 11005KT 35/08 A2987 RMK A01 T03510082  RH  019%=      5-min Rain = 0
KAHS 122233Z 11005KT 35/08 A2986 RMK A01 T03500083  RH  019%=      5-min Rain = 0
KAHS 122234Z 09009KT 35/08 A2986 RMK A01 T03500082  RH  019%=      5-min Rain = 0
KAHS 122235Z 11008KT 35/08 A2986 RMK A01 T03500083  RH  020%=      5-min Rain = 0
KAHS 122236Z 12005KT 35/08 A2986 RMK A01 T03500082  RH  019%=      5-min Rain = 0
KAHS 122237Z 13008KT 35/08 A2986 RMK A01 T03490082  RH  020%=      5-min Rain = 0
KAHS 122238Z 13005KT 35/08 A2986 RMK A01 T03460082  RH  020%=      5-min Rain = 0
KAHS 122239Z 13005KT 35/08 A2986 RMK A01 T03450084  RH  020%=      5-min Rain = 0
KAHS 122240Z 15006KT 35/08 A2986 RMK A01 T03480083  RH  020%=      5-min Rain = 0
KAHS 122241Z 16006KT 35/08 A2986 RMK A01 T03500083  RH  019%=      5-min Rain = 0
KAHS 122242Z 16004KT 35/08 A2986 RMK A01 T03510084  RH  020%=      5-min Rain = 0
KAHS 122243Z 15002KT 35/08 A2986 RMK A01 T03520084  RH  019%=      5-min Rain = 0
KAHS 122244Z 17004KT 35/08 A2986 RMK A01 T03540084  RH  019%=      5-min Rain = 0
KAHS 122245Z 18003KT 35/08 A2986 RMK A01 T03540082  RH  019%=      5-min Rain = 0
KAHS 122246Z 19002KT 35/08 A2986 RMK A01 T03510082  RH  019%=      5-min Rain = 0
KAHS 122247Z 29001KT 35/08 A2986 RMK A01 T03520083  RH  019%=      5-min Rain = 0
KAHS 122248Z 01005KT 35/08 A2986 RMK A01 T03540082  RH  019%=      5-min Rain = 0
KAHS 122249Z 04006KT 35/08 A2986 RMK A01 T03530080  RH  019%=      5-min Rain = 0
KAHS 122250Z 04004KT 35/08 A2986 RMK A01 T03500080  RH  019%=      5-min Rain = 0
KAHS 122251Z 03003KT 35/08 A2986 RMK A01 T03490080  RH  019%=      5-min Rain = 0
KAHS 122252Z 05007G12KT 35/08 A2986 RMK A01 T03510081  RH  019%=      5-min Rain = 0
KAHS 122253Z 04007KT 35/08 A2986 RMK A01 T03530081  RH  019%=      5-min Rain = 0
KAHS 122254Z 04006KT 35/08 A2986 RMK A01 T03540080  RH  019%=      5-min Rain = 0
KAHS 122255Z 04004KT 35/08 A2986 RMK A01 T03510079  RH  019%=      5-min Rain = 0
KAHS 122256Z 07006KT 35/08 A2986 RMK A01 T03500081  RH  019%=      5-min Rain = 0
KAHS 122257Z 05007KT 35/08 A2986 RMK A01 T03500080  RH  019%=      5-min Rain = 0
KAHS 122258Z 05008KT 35/08 A2986 RMK A01 T03490080  RH  019%=      5-min Rain = 0
KAHS 122259Z 06008KT 35/08 A2986 RMK A01 T03490080  RH  019%=      5-min Rain = 0
KAHS 122300Z 05007KT 35/08 A2986 RMK A01 T03470082  RH  020%=      5-min Rain = 0
KAHS 122301Z 07008KT 35/08 A2986 RMK A01 T03480084  RH  020%=      5-min Rain = 0
KAHS 122302Z 07007KT 35/08 A2986 RMK A01 T03480084  RH  020%=      5-min Rain = 0
KAHS 122303Z 06007KT 35/08 A2986 RMK A01 T03470084  RH  020%=      5-min Rain = 0
KAHS 122304Z 10009KT 35/08 A2986 RMK A01 T03470084  RH  020%=      5-min Rain = 0
KAHS 122305Z 09009KT 35/08 A2986 RMK A01 T03460084  RH  020%=      5-min Rain = 0
KAHS 122306Z 07008KT 35/08 A2986 RMK A01 T03470084  RH  020%=      5-min Rain = 0
KAHS 122307Z 09009KT 35/08 A2986 RMK A01 T03460084  RH  020%=      5-min Rain = 0
KAHS 122308Z 07007KT 35/08 A2986 RMK A01 T03480084  RH  020%=      5-min Rain = 0
KAHS 122309Z 06003KT 35/08 A2986 RMK A01 T03500083  RH  019%=      5-min Rain = 0
KAHS 122310Z 07006KT 35/08 A2986 RMK A01 T03500084  RH  020%=      5-min Rain = 0
KAHS 122311Z 05005KT 35/09 A2986 RMK A01 T03510085  RH  020%=      5-min Rain = 0
KAHS 122312Z 05008KT 35/08 A2986 RMK A01 T03500083  RH  019%=      5-min Rain = 0
KAHS 122313Z 06006KT 35/08 A2986 RMK A01 T03460084  RH  020%=      5-min Rain = 0
KAHS 122314Z 08006KT 35/08 A2986 RMK A01 T03470084  RH  020%=      5-min Rain = 0
KAHS 122315Z 07008KT 35/08 A2986 RMK A01 T03460084  RH  020%=      5-min Rain = 0
KAHS 122316Z 08008KT 35/08 A2986 RMK A01 T03450083  RH  020%=      5-min Rain = 0
KAHS 122317Z 09006KT 34/08 A2986 RMK A01 T03430083  RH  020%=      5-min Rain = 0
KAHS 122318Z 08005KT 34/08 A2986 RMK A01 T03440084  RH  020%=      5-min Rain = 0
KAHS 122319Z 09006KT 34/08 A2986 RMK A01 T03430083  RH  020%=      5-min Rain = 0
KAHS 122320Z 07006KT 34/08 A2986 RMK A01 T03440084  RH  020%=      5-min Rain = 0
KAHS 122321Z 09006KT 35/09 A2986 RMK A01 T03460086  RH  020%=      5-min Rain = 0
KAHS 122322Z 07006KT 35/08 A2986 RMK A01 T03480084  RH  020%=      5-min Rain = 0
KAHS 122323Z 08009KT 35/08 A2986 RMK A01 T03460083  RH  020%=      5-min Rain = 0
KAHS 122324Z 09006KT 34/08 A2986 RMK A01 T03420083  RH  020%=      5-min Rain = 0
KAHS 122325Z 11006KT 34/08 A2986 RMK A01 T03410083  RH  020%=      5-min Rain = 0
KAHS 122326Z 12004KT 34/08 A2986 RMK A01 T03400084  RH  021%=      5-min Rain = 0
KAHS 122327Z 12004KT 34/09 A2986 RMK A01 T03430085  RH  021%=      5-min Rain = 0
KAHS 122328Z 11007KT 34/09 A2986 RMK A01 T03440085  RH  020%=      5-min Rain = 0
KAHS 122329Z 12007KT 35/09 A2986 RMK A01 T03450085  RH  020%=      5-min Rain = 0
KAHS 122330Z 12008KT 34/08 A2986 RMK A01 T03440084  RH  020%=      5-min Rain = 0
KAHS 122331Z 11008KT 34/08 A2986 RMK A01 T03420084  RH  020%=      5-min Rain = 0
KAHS 122332Z 12007KT 34/08 A2986 RMK A01 T03420083  RH  020%=      5-min Rain = 0
KAHS 122333Z 11007KT 34/08 A2986 RMK A01 T03410084  RH  021%=      5-min Rain = 0
KAHS 122334Z 11006KT 34/08 A2986 RMK A01 T03410084  RH  021%=      5-min Rain = 0
KAHS 122335Z 11004KT 34/09 A2986 RMK A01 T03410085  RH  021%=      5-min Rain = 0
KAHS 122336Z 10005KT 34/09 A2986 RMK A01 T03440085  RH  020%=      5-min Rain = 0
KAHS 122337Z 10007KT 34/08 A2986 RMK A01 T03420083  RH  020%=      5-min Rain = 0
KAHS 122338Z 11006KT 34/08 A2986 RMK A01 T03410083  RH  020%=      5-min Rain = 0
KAHS 122339Z 12005KT 34/08 A2986 RMK A01 T03400083  RH  021%=      5-min Rain = 0
KAHS 122340Z 10005KT 34/08 A2986 RMK A01 T03400084  RH  021%=      5-min Rain = 0
KAHS 122341Z 11005KT 34/08 A2986 RMK A01 T03410084  RH  021%=      5-min Rain = 0
KAHS 122342Z 12005KT 34/09 A2986 RMK A01 T03410085  RH  021%=      5-min Rain = 0
KAHS 122343Z 13007KT 34/08 A2986 RMK A01 T03400084  RH  021%=      5-min Rain = 0
KAHS 122344Z 13006KT 34/08 A2985 RMK A01 T03390083  RH  021%=      5-min Rain = 0
KAHS 122345Z 13005KT 34/08 A2985 RMK A01 T03380084  RH  021%=      5-min Rain = 0
KAHS 122346Z 11006KT 34/08 A2985 RMK A01 T03390084  RH  021%=      5-min Rain = 0
KAHS 122347Z 11006KT 34/08 A2985 RMK A01 T03390083  RH  021%=      5-min Rain = 0
KAHS 122348Z 11005KT 34/08 A2985 RMK A01 T03380083  RH  021%=      5-min Rain = 0
KAHS 122349Z 12004KT 34/08 A2985 RMK A01 T03380084  RH  021%=      5-min Rain = 0
KAHS 122350Z 11005KT 34/09 A2985 RMK A01 T03390085  RH  021%=      5-min Rain = 0
KAHS 122351Z 10005KT 34/09 A2985 RMK A01 T03390085  RH  021%=      5-min Rain = 0
KAHS 122352Z 09008KT 34/08 A2985 RMK A01 T03390084  RH  021%=      5-min Rain = 0
KAHS 122353Z 09007KT 34/08 A2985 RMK A01 T03390084  RH  021%=      5-min Rain = 0
KAHS 122354Z 08005KT 34/08 A2985 RMK A01 T03380084  RH  021%=      5-min Rain = 0
KAHS 122355Z 09004KT 34/09 A2985 RMK A01 T03380085  RH  021%=      5-min Rain = 0
KAHS 122356Z 09005KT 34/09 A2985 RMK A01 T03380085  RH  021%=      5-min Rain = 0
KAHS 122357Z 09007KT 34/08 A2985 RMK A01 T03380084  RH  021%=      5-min Rain = 0
KAHS 122358Z 10007KT 34/08 A2985 RMK A01 T03370084  RH  021%=      5-min Rain = 0
KAHS 122359Z 09006KT 34/08 A2985 RMK A01 T03360084  RH  021%=      5-min Rain = 0
KAHS 130000Z 10005KT 34/08 A2985 RMK A01 T03360084  RH  021%=      5-min Rain = 0
KAHS 130001Z 11005KT 34/08 A2985 RMK A01 T03350084  RH  021%=      5-min Rain = 0
KAHS 130002Z 11006KT 34/08 A2985 RMK A01 T03350084  RH  021%=      5-min Rain = 0
KAHS 130003Z 10006KT 34/08 A2985 RMK A01 T03350084  RH  021%=      5-min Rain = 0
KAHS 130004Z 11006KT 33/09 A2985 RMK A01 T03340085  RH  021%=      5-min Rain = 0
KAHS 130005Z 10007KT 33/08 A2985 RMK A01 T03340084  RH  021%=      5-min Rain = 0
KAHS 130006Z 10006KT 33/08 A2985 RMK A01 T03340084  RH  021%=      5-min Rain = 0
KAHS 130007Z 09004KT 33/08 A2985 RMK A01 T03330084  RH  022%=      5-min Rain = 0
KAHS 130008Z 09005KT 33/09 A2985 RMK A01 T03330085  RH  022%=      5-min Rain = 0
KAHS 130009Z 09005KT 33/09 A2985 RMK A01 T03330085  RH  022%=      5-min Rain = 0
KAHS 130010Z 10004KT 33/09 A2985 RMK A01 T03330086  RH  022%=      5-min Rain = 0
KAHS 130011Z 10005KT 33/09 A2985 RMK A01 T03330087  RH  022%=      5-min Rain = 0
KAHS 130012Z 09005KT 33/09 A2985 RMK A01 T03320086  RH  022%=      5-min Rain = 0
KAHS 130013Z 09004KT 33/09 A2985 RMK A01 T03320086  RH  022%=      5-min Rain = 0
KAHS 130014Z 09004KT 33/09 A2985 RMK A01 T03310087  RH  022%=      5-min Rain = 0
KAHS 130015Z 09004KT 33/09 A2985 RMK A01 T03310086  RH  022%=      5-min Rain = 0
KAHS 130016Z 09003KT 33/09 A2985 RMK A01 T03310087  RH  022%=      5-min Rain = 0
KAHS 130017Z 09006KT 33/09 A2985 RMK A01 T03300086  RH  022%=      5-min Rain = 0
KAHS 130018Z 09005KT 33/09 A2985 RMK A01 T03290086  RH  022%=      5-min Rain = 0
KAHS 130019Z 09006KT 33/09 A2985 RMK A01 T03290085  RH  022%=      5-min Rain = 0
KAHS 130020Z 10005KT 33/09 A2985 RMK A01 T03280085  RH  022%=      5-min Rain = 0
KAHS 130021Z 10005KT 33/09 A2985 RMK A01 T03280086  RH  022%=      5-min Rain = 0
KAHS 130022Z 09005KT 33/09 A2985 RMK A01 T03270086  RH  022%=      5-min Rain = 0
KAHS 130023Z 09005KT 33/09 A2985 RMK A01 T03270085  RH  022%=      5-min Rain = 0
KAHS 130024Z 09005KT 33/09 A2985 RMK A01 T03260085  RH  023%=      5-min Rain = 0
KAHS 130025Z 10005KT 33/09 A2985 RMK A01 T03260086  RH  023%=      5-min Rain = 0
KAHS 130026Z 10005KT 33/09 A2985 RMK A01 T03260086  RH  023%=      5-min Rain = 0
KAHS 130027Z 10005KT 33/09 A2985 RMK A01 T03250086  RH  023%=      5-min Rain = 0
KAHS 130028Z 10006KT 32/09 A2985 RMK A01 T03240086  RH  023%=      5-min Rain = 0
KAHS 130029Z 10004KT 32/09 A2985 RMK A01 T03240086  RH  023%=      5-min Rain = 0
KAHS 130030Z 11005KT 32/09 A2985 RMK A01 T03230086  RH  023%=      5-min Rain = 0
KAHS 130031Z 10004KT 32/09 A2985 RMK A01 T03220087  RH  023%=      5-min Rain = 0
KAHS 130032Z 10005KT 32/09 A2985 RMK A01 T03210087  RH  023%=      5-min Rain = 0
KAHS 130033Z 11007KT 32/09 A2985 RMK A01 T03210087  RH  023%=      5-min Rain = 0
KAHS 130034Z 10006KT 32/09 A2985 RMK A01 T03200087  RH  024%=      5-min Rain = 0
KAHS 130035Z 11006KT 32/09 A2985 RMK A01 T03200087  RH  024%=      5-min Rain = 0
KAHS 130036Z 10007KT 32/09 A2985 RMK A01 T03190087  RH  024%=      5-min Rain = 0
KAHS 130037Z 10006KT 32/09 A2985 RMK A01 T03190087  RH  024%=      5-min Rain = 0
KAHS 130038Z 10007KT 32/09 A2985 RMK A01 T03180087  RH  024%=      5-min Rain = 0
KAHS 130039Z 11006KT 32/09 A2985 RMK A01 T03180087  RH  024%=      5-min Rain = 0
KAHS 130040Z 11008KT 32/09 A2985 RMK A01 T03170087  RH  024%=      5-min Rain = 0
KAHS 130041Z 11007KT 32/09 A2985 RMK A01 T03170088  RH  024%=      5-min Rain = 0
KAHS 130042Z 11007KT 32/09 A2985 RMK A01 T03160088  RH  024%=      5-min Rain = 0
KAHS 130043Z 11008KT 32/09 A2985 RMK A01 T03160088  RH  024%=      5-min Rain = 0
KAHS 130044Z 11007KT 32/09 A2985 RMK A01 T03160088  RH  024%=      5-min Rain = 0
KAHS 130045Z 11007KT 32/09 A2985 RMK A01 T03150088  RH  025%=      5-min Rain = 0
KAHS 130046Z 11007KT 31/09 A2985 RMK A01 T03140089  RH  025%=      5-min Rain = 0
KAHS 130047Z 11006KT 31/09 A2985 RMK A01 T03130089  RH  025%=      5-min Rain = 0
KAHS 130048Z 11007KT 31/09 A2985 RMK A01 T03130089  RH  025%=      5-min Rain = 0
KAHS 130049Z 11008KT 31/09 A2985 RMK A01 T03120089  RH  025%=      5-min Rain = 0
KAHS 130050Z 11007KT 31/09 A2985 RMK A01 T03120089  RH  025%=      5-min Rain = 0
KAHS 130051Z 12007KT 31/09 A2985 RMK A01 T03120089  RH  025%=      5-min Rain = 0
KAHS 130052Z 12006KT 31/09 A2985 RMK A01 T03110089  RH  025%=      5-min Rain = 0
KAHS 130053Z 11006KT 31/09 A2985 RMK A01 T03100089  RH  025%=      5-min Rain = 0
KAHS 130054Z 11006KT 31/09 A2985 RMK A01 T03090089  RH  026%=      5-min Rain = 0
KAHS 130055Z 11006KT 31/09 A2985 RMK A01 T03090089  RH  026%=      5-min Rain = 0
KAHS 130056Z 11006KT 31/09 A2985 RMK A01 T03080090  RH  026%=      5-min Rain = 0
KAHS 130057Z 11006KT 31/09 A2985 RMK A01 T03070089  RH  026%=      5-min Rain = 0
KAHS 130058Z 11006KT 31/09 A2985 RMK A01 T03070089  RH  026%=      5-min Rain = 0
KAHS 130059Z 11007KT 31/09 A2985 RMK A01 T03060089  RH  026%=      5-min Rain = 0
KAHS 130100Z 10007KT 31/09 A2985 RMK A01 T03060089  RH  026%=      5-min Rain = 0
KAHS 130101Z 11007KT 31/09 A2985 RMK A01 T03050089  RH  026%=      5-min Rain = 0
KAHS 130102Z 10007KT 31/09 A2985 RMK A01 T03050089  RH  026%=      5-min Rain = 0
KAHS 130103Z 11008KT 31/09 A2985 RMK A01 T03050089  RH  026%=      5-min Rain = 0
KAHS 130104Z 10005KT 31/09 A2985 RMK A01 T03050089  RH  026%=      5-min Rain = 0
KAHS 130105Z 10005KT 30/09 A2985 RMK A01 T03040089  RH  026%=      5-min Rain = 0
KAHS 130106Z 10007KT 30/09 A2985 RMK A01 T03030089  RH  026%=      5-min Rain = 0
KAHS 130107Z 10007KT 30/09 A2985 RMK A01 T03040089  RH  026%=      5-min Rain = 0
KAHS 130108Z 10007KT 30/09 A2985 RMK A01 T03040089  RH  026%=      5-min Rain = 0
KAHS 130109Z 10006KT 30/09 A2985 RMK A01 T03040089  RH  026%=      5-min Rain = 0
KAHS 130110Z 10007KT 30/09 A2985 RMK A01 T03030089  RH  026%=      5-min Rain = 0
KAHS 130111Z 11008KT 30/09 A2985 RMK A01 T03030089  RH  026%=      5-min Rain = 0
KAHS 130112Z 10007KT 30/09 A2985 RMK A01 T03030089  RH  026%=      5-min Rain = 0
KAHS 130113Z 10006KT 30/09 A2985 RMK A01 T03030089  RH  026%=      5-min Rain = 0
KAHS 130114Z 10008KT 30/09 A2985 RMK A01 T03020089  RH  026%=      5-min Rain = 0
KAHS 130115Z 10006KT 30/09 A2985 RMK A01 T03020089  RH  026%=      5-min Rain = 0
KAHS 130116Z 10009KT 30/09 A2985 RMK A01 T03010088  RH  027%=      5-min Rain = 0
KAHS 130117Z 10008KT 30/09 A2986 RMK A01 T03010088  RH  027%=      5-min Rain = 0
KAHS 130118Z 10009KT 30/09 A2986 RMK A01 T03010088  RH  027%=      5-min Rain = 0
KAHS 130119Z 10007KT 30/09 A2986 RMK A01 T03010088  RH  027%=      5-min Rain = 0
KAHS 130120Z 10007KT 30/09 A2986 RMK A01 T03000088  RH  027%=      5-min Rain = 0
KAHS 130121Z 11007KT 30/09 A2986 RMK A01 T02990088  RH  027%=      5-min Rain = 0
KAHS 130122Z 10008KT 30/09 A2986 RMK A01 T02990088  RH  027%=      5-min Rain = 0
KAHS 130123Z 10009KT 30/09 A2986 RMK A01 T02990088  RH  027%=      5-min Rain = 0
KAHS 130124Z 10007KT 30/09 A2986 RMK A01 T02990088  RH  027%=      5-min Rain = 0
KAHS 130125Z 11008KT 30/09 A2986 RMK A01 T02980088  RH  027%=      5-min Rain = 0
KAHS 130126Z 11006KT 30/09 A2986 RMK A01 T02980088  RH  027%=      5-min Rain = 0
KAHS 130127Z 11006KT 30/09 A2986 RMK A01 T02970088  RH  027%=      5-min Rain = 0
KAHS 130128Z 12006KT 30/09 A2986 RMK A01 T02960088  RH  027%=      5-min Rain = 0
KAHS 130129Z 11006KT 30/09 A2986 RMK A01 T02950088  RH  028%=      5-min Rain = 0
KAHS 130130Z 10006KT 29/09 A2986 RMK A01 T02940088  RH  028%=      5-min Rain = 0
KAHS 130131Z 10006KT 29/09 A2986 RMK A01 T02930088  RH  028%=      5-min Rain = 0
KAHS 130132Z 11006KT 29/09 A2986 RMK A01 T02930088  RH  028%=      5-min Rain = 0
KAHS 130133Z 11006KT 29/09 A2986 RMK A01 T02930088  RH  028%=      5-min Rain = 0
KAHS 130134Z 10005KT 29/09 A2986 RMK A01 T02920088  RH  028%=      5-min Rain = 0
KAHS 130135Z 10007KT 29/09 A2986 RMK A01 T02910088  RH  028%=      5-min Rain = 0
KAHS 130136Z 10007KT 29/09 A2986 RMK A01 T02920088  RH  028%=      5-min Rain = 0
KAHS 130137Z 11007KT 29/09 A2986 RMK A01 T02920088  RH  028%=      5-min Rain = 0
KAHS 130138Z 10007KT 29/09 A2986 RMK A01 T02920088  RH  028%=      5-min Rain = 0
KAHS 130139Z 11008KT 29/09 A2986 RMK A01 T02920088  RH  028%=      5-min Rain = 0
KAHS 130140Z 10008KT 29/09 A2986 RMK A01 T02920087  RH  028%=      5-min Rain = 0
KAHS 130141Z 11007KT 29/09 A2986 RMK A01 T02920087  RH  028%=      5-min Rain = 0
KAHS 130142Z 11007KT 29/09 A2986 RMK A01 T02920087  RH  028%=      5-min Rain = 0
KAHS 130143Z 11007KT 29/09 A2986 RMK A01 T02910087  RH  028%=      5-min Rain = 0
KAHS 130144Z 12005KT 29/09 A2986 RMK A01 T02910088  RH  028%=      5-min Rain = 0
KAHS 130145Z 11006KT 29/09 A2986 RMK A01 T02890088  RH  028%=      5-min Rain = 0
KAHS 130146Z 11005KT 29/09 A2987 RMK A01 T02880088  RH  029%=      5-min Rain = 0
KAHS 130147Z 11006KT 29/09 A2987 RMK A01 T02870088  RH  029%=      5-min Rain = 0
KAHS 130148Z 11006KT 29/09 A2987 RMK A01 T02870088  RH  029%=      5-min Rain = 0
KAHS 130149Z 11005KT 29/09 A2987 RMK A01 T02860088  RH  029%=      5-min Rain = 0
KAHS 130150Z 11005KT 29/09 A2987 RMK A01 T02850088  RH  029%=      5-min Rain = 0
KAHS 130151Z 11005KT 29/09 A2987 RMK A01 T02850088  RH  029%=      5-min Rain = 0
KAHS 130152Z 11006KT 28/09 A2987 RMK A01 T02840088  RH  029%=      5-min Rain = 0
KAHS 130153Z 11005KT 29/09 A2987 RMK A01 T02850088  RH  029%=      5-min Rain = 0
KAHS 130154Z 11005KT 29/09 A2987 RMK A01 T02850088  RH  029%=      5-min Rain = 0
KAHS 130155Z 11005KT 28/09 A2987 RMK A01 T02840088  RH  029%=      5-min Rain = 0
KAHS 130156Z 11005KT 28/09 A2987 RMK A01 T02830088  RH  029%=      5-min Rain = 0
KAHS 130157Z 11005KT 28/09 A2987 RMK A01 T02830088  RH  029%=      5-min Rain = 0
KAHS 130158Z 11005KT 28/09 A2987 RMK A01 T02820088  RH  030%=      5-min Rain = 0
KAHS 130159Z 11005KT 28/09 A2987 RMK A01 T02810088  RH  030%=      5-min Rain = 0
KAHS 130200Z 11004KT 28/09 A2987 RMK A01 T02810088  RH  030%=      5-min Rain = 0
KAHS 130201Z 11006KT 28/09 A2987 RMK A01 T02820088  RH  030%=      5-min Rain = 0
KAHS 130202Z 11005KT 28/09 A2987 RMK A01 T02820088  RH  030%=      5-min Rain = 0
KAHS 130203Z 10005KT 28/09 A2987 RMK A01 T02810088  RH  030%=      5-min Rain = 0
KAHS 130204Z 10005KT 28/09 A2988 RMK A01 T02810088  RH  030%=      5-min Rain = 0
KAHS 130205Z 10005KT 28/09 A2988 RMK A01 T02800088  RH  030%=      5-min Rain = 0
KAHS 130206Z 10005KT 28/09 A2988 RMK A01 T02800088  RH  030%=      5-min Rain = 0
KAHS 130207Z 10006KT 28/09 A2988 RMK A01 T02800088  RH  030%=      5-min Rain = 0
KAHS 130208Z 09005KT 28/09 A2988 RMK A01 T02800088  RH  030%=      5-min Rain = 0
KAHS 130209Z 10005KT 28/09 A2988 RMK A01 T02790088  RH  030%=      5-min Rain = 0
KAHS 130210Z 10005KT 28/09 A2988 RMK A01 T02790088  RH  030%=      5-min Rain = 0
KAHS 130211Z 10004KT 28/09 A2988 RMK A01 T02780088  RH  030%=      5-min Rain = 0
KAHS 130212Z 10005KT 28/09 A2988 RMK A01 T02770088  RH  030%=      5-min Rain = 0
KAHS 130213Z 10004KT 28/09 A2988 RMK A01 T02770088  RH  030%=      5-min Rain = 0
KAHS 130214Z 10004KT 28/09 A2988 RMK A01 T02760088  RH  031%=      5-min Rain = 0
KAHS 130215Z 10005KT 28/09 A2988 RMK A01 T02760088  RH  031%=      5-min Rain = 0
KAHS 130216Z 09005KT 28/09 A2988 RMK A01 T02750088  RH  031%=      5-min Rain = 0
KAHS 130217Z 09005KT 28/09 A2988 RMK A01 T02750088  RH  031%=      5-min Rain = 0
KAHS 130218Z 09005KT 27/09 A2988 RMK A01 T02740088  RH  031%=      5-min Rain = 0
KAHS 130219Z 09005KT 27/09 A2988 RMK A01 T02730088  RH  031%=      5-min Rain = 0
KAHS 130220Z 09005KT 27/09 A2988 RMK A01 T02720088  RH  031%=      5-min Rain = 0
KAHS 130221Z 09005KT 27/09 A2988 RMK A01 T02720088  RH  031%=      5-min Rain = 0
KAHS 130222Z 10005KT 27/09 A2988 RMK A01 T02720088  RH  031%=      5-min Rain = 0
KAHS 130223Z 09006KT 27/09 A2988 RMK A01 T02730088  RH  031%=      5-min Rain = 0
KAHS 130224Z 10005KT 27/09 A2988 RMK A01 T02740088  RH  031%=      5-min Rain = 0
KAHS 130225Z 10004KT 27/09 A2988 RMK A01 T02730088  RH  031%=      5-min Rain = 0
KAHS 130226Z 11005KT 27/09 A2988 RMK A01 T02720088  RH  031%=      5-min Rain = 0
KAHS 130227Z 11006KT 27/09 A2988 RMK A01 T02730088  RH  031%=      5-min Rain = 0
KAHS 130228Z 10005KT 27/09 A2988 RMK A01 T02740088  RH  031%=      5-min Rain = 0
KAHS 130229Z 10005KT 27/09 A2988 RMK A01 T02730088  RH  031%=      5-min Rain = 0
KAHS 130230Z 10004KT 27/09 A2988 RMK A01 T02720088  RH  031%=      5-min Rain = 0
KAHS 130231Z 10006KT 27/09 A2989 RMK A01 T02700088  RH  032%=      5-min Rain = 0
KAHS 130232Z 09005KT 27/09 A2988 RMK A01 T02700088  RH  032%=      5-min Rain = 0
KAHS 130233Z 09005KT 27/09 A2988 RMK A01 T02700088  RH  032%=      5-min Rain = 0
KAHS 130234Z 09005KT 27/09 A2989 RMK A01 T02710088  RH  032%=      5-min Rain = 0
KAHS 130235Z 08005KT 27/09 A2989 RMK A01 T02700089  RH  032%=      5-min Rain = 0
KAHS 130236Z 08005KT 27/09 A2989 RMK A01 T02690089  RH  032%=      5-min Rain = 0
KAHS 130237Z 08005KT 27/09 A2989 RMK A01 T02680089  RH  032%=      5-min Rain = 0
KAHS 130238Z 08006KT 27/09 A2989 RMK A01 T02680089  RH  032%=      5-min Rain = 0
KAHS 130239Z 09006KT 27/09 A2989 RMK A01 T02680088  RH  032%=      5-min Rain = 0
KAHS 130240Z 09007KT 27/09 A2989 RMK A01 T02680088  RH  032%=      5-min Rain = 0
KAHS 130241Z 09005KT 27/09 A2989 RMK A01 T02690088  RH  032%=      5-min Rain = 0
KAHS 130242Z 09005KT 27/09 A2989 RMK A01 T02690088  RH  032%=      5-min Rain = 0
KAHS 130243Z 10005KT 27/09 A2989 RMK A01 T02690088  RH  032%=      5-min Rain = 0
KAHS 130244Z 10004KT 27/09 A2989 RMK A01 T02690088  RH  032%=      5-min Rain = 0
KAHS 130245Z 09005KT 27/09 A2989 RMK A01 T02680088  RH  032%=      5-min Rain = 0
KAHS 130246Z 09005KT 27/09 A2989 RMK A01 T02670088  RH  032%=      5-min Rain = 0
KAHS 130247Z 08005KT 27/09 A2989 RMK A01 T02660088  RH  033%=      5-min Rain = 0
KAHS 130248Z 07005KT 26/09 A2989 RMK A01 T02640088  RH  033%=      5-min Rain = 0
KAHS 130249Z 07005KT 26/09 A2989 RMK A01 T02640088  RH  033%=      5-min Rain = 0
KAHS 130250Z 08006KT 27/09 A2989 RMK A01 T02650088  RH  033%=      5-min Rain = 0
KAHS 130251Z 09006KT 27/09 A2989 RMK A01 T02660088  RH  032%=      5-min Rain = 0
KAHS 130252Z 09004KT 27/09 A2989 RMK A01 T02660089  RH  033%=      5-min Rain = 0
KAHS 130253Z 09005KT 26/09 A2989 RMK A01 T02640089  RH  033%=      5-min Rain = 0
KAHS 130254Z 09005KT 26/09 A2989 RMK A01 T02630088  RH  033%=      5-min Rain = 0
KAHS 130255Z 09005KT 26/09 A2989 RMK A01 T02620088  RH  033%=      5-min Rain = 0
KAHS 130256Z 09005KT 26/09 A2989 RMK A01 T02610088  RH  033%=      5-min Rain = 0
KAHS 130257Z 09005KT 26/09 A2989 RMK A01 T02610088  RH  034%=      5-min Rain = 0
KAHS 130258Z 09004KT 26/09 A2989 RMK A01 T02610088  RH  033%=      5-min Rain = 0
KAHS 130259Z 09005KT 26/09 A2989 RMK A01 T02610088  RH  034%=      5-min Rain = 0
KAHS 130300Z 09005KT 26/09 A2989 RMK A01 T02600088  RH  034%=      5-min Rain = 0
KAHS 130301Z 09004KT 26/09 A299 RMK A01 T02590088  RH  034%=      5-min Rain = 0
KAHS 130302Z 10004KT 26/09 A299 RMK A01 T02580088  RH  034%=      5-min Rain = 0
KAHS 130303Z 10004KT 26/09 A299 RMK A01 T02570088  RH  034%=      5-min Rain = 0
KAHS 130304Z 09004KT 26/09 A299 RMK A01 T02560088  RH  034%=      5-min Rain = 0
KAHS 130305Z 08004KT 26/09 A299 RMK A01 T02550088  RH  035%=      5-min Rain = 0
KAHS 130306Z 08004KT 25/09 A299 RMK A01 T02540088  RH  035%=      5-min Rain = 0
KAHS 130307Z 08004KT 25/09 A299 RMK A01 T02540088  RH  035%=      5-min Rain = 0
KAHS 130308Z 08005KT 25/09 A299 RMK A01 T02530088  RH  035%=      5-min Rain = 0
KAHS 130309Z 08005KT 25/09 A299 RMK A01 T02530088  RH  035%=      5-min Rain = 0
KAHS 130310Z 08005KT 25/09 A299 RMK A01 T02530088  RH  035%=      5-min Rain = 0
KAHS 130311Z 08005KT 25/09 A299 RMK A01 T02520089  RH  035%=      5-min Rain = 0
KAHS 130312Z 08006KT 25/09 A299 RMK A01 T02520089  RH  036%=      5-min Rain = 0
KAHS 130313Z 08006KT 25/09 A299 RMK A01 T02510089  RH  036%=      5-min Rain = 0
KAHS 130314Z 08005KT 25/09 A299 RMK A01 T02510090  RH  036%=      5-min Rain = 0
KAHS 130315Z 08006KT 25/09 A299 RMK A01 T02520090  RH  036%=      5-min Rain = 0
KAHS 130316Z 09006KT 25/09 A299 RMK A01 T02520090  RH  036%=      5-min Rain = 0
KAHS 130317Z 10005KT 25/09 A299 RMK A01 T02520090  RH  036%=      5-min Rain = 0
KAHS 130318Z 10005KT 25/09 A299 RMK A01 T02520089  RH  036%=      5-min Rain = 0
KAHS 130319Z 10005KT 25/09 A299 RMK A01 T02510090  RH  036%=      5-min Rain = 0
KAHS 130320Z 10004KT 25/09 A299 RMK A01 T02500090  RH  036%=      5-min Rain = 0
KAHS 130321Z 08005KT 25/09 A299 RMK A01 T02490090  RH  036%=      5-min Rain = 0
KAHS 130322Z 07005KT 25/09 A299 RMK A01 T02480090  RH  037%=      5-min Rain = 0
KAHS 130323Z 07006KT 25/09 A299 RMK A01 T02470090  RH  037%=      5-min Rain = 0
KAHS 130324Z 08005KT 25/09 A299 RMK A01 T02470090  RH  037%=      5-min Rain = 0
KAHS 130325Z 09005KT 25/09 A299 RMK A01 T02470090  RH  037%=      5-min Rain = 0
KAHS 130326Z 09005KT 25/09 A299 RMK A01 T02470090  RH  037%=      5-min Rain = 0
KAHS 130327Z 09005KT 25/09 A299 RMK A01 T02460090  RH  037%=      5-min Rain = 0
KAHS 130328Z 08005KT 25/09 A299 RMK A01 T02450090  RH  037%=      5-min Rain = 0
KAHS 130329Z 08005KT 25/09 A299 RMK A01 T02450090  RH  037%=      5-min Rain = 0
KAHS 130330Z 08005KT 24/09 A299 RMK A01 T02440091  RH  038%=      5-min Rain = 0
KAHS 130331Z 09004KT 24/09 A299 RMK A01 T02440091  RH  038%=      5-min Rain = 0
KAHS 130332Z 09005KT 24/09 A299 RMK A01 T02440091  RH  038%=      5-min Rain = 0
KAHS 130333Z 09004KT 24/09 A299 RMK A01 T02430091  RH  038%=      5-min Rain = 0
KAHS 130334Z 09004KT 24/09 A299 RMK A01 T02430090  RH  038%=      5-min Rain = 0
KAHS 130335Z 10003KT 24/09 A299 RMK A01 T02420090  RH  038%=      5-min Rain = 0
KAHS 130336Z 10003KT 24/09 A299 RMK A01 T02420090  RH  038%=      5-min Rain = 0
KAHS 130337Z 10003KT 24/09 A299 RMK A01 T02410090  RH  038%=      5-min Rain = 0
KAHS 130338Z 10004KT 24/09 A299 RMK A01 T02410090  RH  038%=      5-min Rain = 0
KAHS 130339Z 09004KT 24/09 A299 RMK A01 T02400090  RH  038%=      5-min Rain = 0
KAHS 130340Z 09004KT 24/09 A299 RMK A01 T02400090  RH  038%=      5-min Rain = 0
KAHS 130341Z 08004KT 24/09 A299 RMK A01 T02400090  RH  039%=      5-min Rain = 0
KAHS 130342Z 09004KT 24/09 A299 RMK A01 T02410090  RH  038%=      5-min Rain = 0
KAHS 130343Z 09004KT 24/09 A299 RMK A01 T02420090  RH  038%=      5-min Rain = 0
KAHS 130344Z 09004KT 24/09 A299 RMK A01 T02420090  RH  038%=      5-min Rain = 0
KAHS 130345Z 10003KT 24/09 A299 RMK A01 T02420090  RH  038%=      5-min Rain = 0
KAHS 130346Z 10004KT 24/09 A299 RMK A01 T02420090  RH  038%=      5-min Rain = 0
KAHS 130347Z 11004KT 24/09 A299 RMK A01 T02430090  RH  038%=      5-min Rain = 0
KAHS 130348Z 11004KT 24/09 A299 RMK A01 T02430089  RH  038%=      5-min Rain = 0
KAHS 130349Z 11003KT 24/09 A299 RMK A01 T02430089  RH  037%=      5-min Rain = 0
KAHS 130350Z 11004KT 24/09 A2991 RMK A01 T02440089  RH  037%=      5-min Rain = 0
KAHS 130351Z 11004KT 24/09 A299 RMK A01 T02440089  RH  037%=      5-min Rain = 0
KAHS 130352Z 11004KT 24/09 A299 RMK A01 T02430089  RH  037%=      5-min Rain = 0
KAHS 130353Z 10004KT 24/09 A299 RMK A01 T02430089  RH  037%=      5-min Rain = 0
KAHS 130354Z 10004KT 24/09 A299 RMK A01 T02430089  RH  038%=      5-min Rain = 0
KAHS 130355Z 10003KT 24/09 A299 RMK A01 T02420089  RH  038%=      5-min Rain = 0
KAHS 130356Z 10003KT 24/09 A299 RMK A01 T02420089  RH  038%=      5-min Rain = 0
KAHS 130357Z 10004KT 24/09 A299 RMK A01 T02430089  RH  037%=      5-min Rain = 0
KAHS 130358Z 11004KT 24/09 A299 RMK A01 T02440088  RH  037%=      5-min Rain = 0
KAHS 130359Z 11003KT 24/09 A299 RMK A01 T02440088  RH  037%=      5-min Rain = 0
KAHS 130400Z 11003KT 24/09 A299 RMK A01 T02440089  RH  037%=      5-min Rain = 0
KAHS 130401Z 12003KT 24/09 A299 RMK A01 T02430088  RH  037%=      5-min Rain = 0
KAHS 130402Z 11004KT 24/09 A299 RMK A01 T02430088  RH  037%=      5-min Rain = 0
KAHS 130403Z 11003KT 24/09 A299 RMK A01 T02430088  RH  037%=      5-min Rain = 0
KAHS 130404Z 11003KT 24/09 A299 RMK A01 T02420088  RH  037%=      5-min Rain = 0
KAHS 130405Z 10003KT 24/09 A299 RMK A01 T02420088  RH  038%=      5-min Rain = 0
KAHS 130406Z 10003KT 24/09 A299 RMK A01 T02410088  RH  038%=      5-min Rain = 0
KAHS 130407Z 11003KT 24/09 A299 RMK A01 T02410088  RH  038%=      5-min Rain = 0
KAHS 130408Z 10003KT 24/09 A299 RMK A01 T02410088  RH  038%=      5-min Rain = 0
KAHS 130409Z 11003KT 24/09 A299 RMK A01 T02410088  RH  038%=      5-min Rain = 0
KAHS 130410Z 10004KT 24/09 A299 RMK A01 T02410088  RH  038%=      5-min Rain = 0
KAHS 130411Z 10005KT 24/09 A299 RMK A01 T02420087  RH  037%=      5-min Rain = 0
KAHS 130412Z 10004KT 24/09 A299 RMK A01 T02430087  RH  037%=      5-min Rain = 0
KAHS 130413Z 10004KT 24/09 A299 RMK A01 T02430087  RH  037%=      5-min Rain = 0
KAHS 130414Z 10005KT 24/09 A299 RMK A01 T02430087  RH  037%=      5-min Rain = 0
KAHS 130415Z 10004KT 24/09 A2991 RMK A01 T02430087  RH  037%=      5-min Rain = 0
KAHS 130416Z 10004KT 24/09 A2991 RMK A01 T02440087  RH  037%=      5-min Rain = 0
KAHS 130417Z 09003KT 24/09 A2991 RMK A01 T02430087  RH  037%=      5-min Rain = 0
KAHS 130418Z 10003KT 24/09 A2991 RMK A01 T02420087  RH  037%=      5-min Rain = 0
KAHS 130419Z 10003KT 24/09 A2991 RMK A01 T02410087  RH  037%=      5-min Rain = 0
KAHS 130420Z 10003KT 24/09 A2991 RMK A01 T02400087  RH  038%=      5-min Rain = 0
KAHS 130421Z 10002KT 24/09 A2991 RMK A01 T02400087  RH  038%=      5-min Rain = 0
KAHS 130422Z 10002KT 24/09 A2991 RMK A01 T02390087  RH  038%=      5-min Rain = 0
KAHS 130423Z 10002KT 24/09 A2991 RMK A01 T02390087  RH  038%=      5-min Rain = 0
KAHS 130424Z 10002KT 24/09 A2991 RMK A01 T02380087  RH  038%=      5-min Rain = 0
KAHS 130425Z 11003KT 24/09 A2991 RMK A01 T02380087  RH  038%=      5-min Rain = 0
KAHS 130426Z 10002KT 24/09 A2991 RMK A01 T02390087  RH  038%=      5-min Rain = 0
KAHS 130427Z 10002KT 24/09 A2991 RMK A01 T02390087  RH  038%=      5-min Rain = 0
KAHS 130428Z 10002KT 24/09 A2991 RMK A01 T02390087  RH  038%=      5-min Rain = 0
KAHS 130429Z 11002KT 24/09 A2991 RMK A01 T02400087  RH  038%=      5-min Rain = 0
KAHS 130430Z 11003KT 24/09 A2991 RMK A01 T02400087  RH  038%=      5-min Rain = 0
KAHS 130431Z 11003KT 24/09 A2991 RMK A01 T02410087  RH  037%=      5-min Rain = 0
KAHS 130432Z 11003KT 24/09 A2991 RMK A01 T02410087  RH  037%=      5-min Rain = 0
KAHS 130433Z 11003KT 24/09 A2991 RMK A01 T02400087  RH  038%=      5-min Rain = 0
KAHS 130434Z 11002KT 24/09 A2991 RMK A01 T02400087  RH  038%=      5-min Rain = 0
KAHS 130435Z 11002KT 24/09 A2991 RMK A01 T02390087  RH  038%=      5-min Rain = 0
KAHS 130436Z 10002KT 24/09 A2991 RMK A01 T02390087  RH  038%=      5-min Rain = 0
KAHS 130437Z 09002KT 24/09 A2991 RMK A01 T02390087  RH  038%=      5-min Rain = 0
KAHS 130438Z 08003KT 24/09 A2991 RMK A01 T02390087  RH  038%=      5-min Rain = 0
KAHS 130439Z 08003KT 24/09 A2991 RMK A01 T02380087  RH  038%=      5-min Rain = 0
KAHS 130440Z 07004KT 24/09 A2991 RMK A01 T02370087  RH  038%=      5-min Rain = 0
KAHS 130441Z 07004KT 24/09 A2991 RMK A01 T02360087  RH  038%=      5-min Rain = 0
KAHS 130442Z 06005KT 24/09 A2991 RMK A01 T02350086  RH  039%=      5-min Rain = 0
KAHS 130443Z 07005KT 23/09 A2991 RMK A01 T02330086  RH  039%=      5-min Rain = 0
KAHS 130444Z 07004KT 23/09 A2991 RMK A01 T02310086  RH  039%=      5-min Rain = 0
KAHS 130445Z 08004KT 23/09 A2991 RMK A01 T02310086  RH  040%=      5-min Rain = 0
KAHS 130446Z 08003KT 23/09 A2991 RMK A01 T02310086  RH  040%=      5-min Rain = 0
KAHS 130447Z 08003KT 23/09 A2991 RMK A01 T02320086  RH  039%=      5-min Rain = 0
KAHS 130448Z 08004KT 23/09 A2991 RMK A01 T02320086  RH  039%=      5-min Rain = 0
KAHS 130449Z 08003KT 23/09 A2991 RMK A01 T02320086  RH  039%=      5-min Rain = 0
KAHS 130450Z 08003KT 23/09 A2991 RMK A01 T02310086  RH  039%=      5-min Rain = 0
KAHS 130451Z 08003KT 23/09 A2991 RMK A01 T02300087  RH  040%=      5-min Rain = 0
KAHS 130452Z 08004KT 23/09 A2991 RMK A01 T02300087  RH  040%=      5-min Rain = 0
KAHS 130453Z 08004KT 23/09 A2991 RMK A01 T02290087  RH  040%=      5-min Rain = 0
KAHS 130454Z 07003KT 23/09 A2991 RMK A01 T02300087  RH  040%=      5-min Rain = 0
KAHS 130455Z 07003KT 23/09 A2991 RMK A01 T02290087  RH  040%=      5-min Rain = 0
KAHS 130456Z 08003KT 23/09 A2991 RMK A01 T02280087  RH  041%=      5-min Rain = 0
KAHS 130457Z 08003KT 23/09 A2991 RMK A01 T02270088  RH  041%=      5-min Rain = 0
KAHS 130458Z 07003KT 23/09 A2991 RMK A01 T02260088  RH  041%=      5-min Rain = 0
KAHS 130459Z 07004KT 23/09 A2991 RMK A01 T02250088  RH  042%=      5-min Rain = 0

Page generated in 0.1459 seconds.